Observation data for Amarillo 7 South Southeast on 03/01/2021      Previous  Date  Next       Current Mesonet Observations  Soil Data  Daily Summary Page  Observations in Plain Language
KAM1 010600Z 05007KT M03/M12 A3022 RMK A01 T10271117  RH  050%=      5-min Rain = 0
KAM1 010601Z 05007KT M03/M12 A3022 RMK A01 T10271117  RH  050%=      5-min Rain = 0
KAM1 010602Z 05007KT M03/M12 A3022 RMK A01 T10271116  RH  050%=      5-min Rain = 0
KAM1 010603Z 04007KT M03/M12 A3022 RMK A01 T10271116  RH  050%=      5-min Rain = 0
KAM1 010604Z 04008KT M03/M12 A3022 RMK A01 T10271117  RH  050%=      5-min Rain = 0
KAM1 010605Z 04008KT M03/M12 A3021 RMK A01 T10271117  RH  050%=      5-min Rain = 0
KAM1 010606Z 04008KT M03/M12 A3021 RMK A01 T10281118  RH  050%=      5-min Rain = 0
KAM1 010607Z 04008KT M03/M12 A3021 RMK A01 T10301119  RH  050%=      5-min Rain = 0
KAM1 010608Z 04008KT M03/M12 A3021 RMK A01 T10311119  RH  051%=      5-min Rain = 0
KAM1 010609Z 04008KT M03/M12 A3021 RMK A01 T10321118  RH  051%=      5-min Rain = 0
KAM1 010610Z 04008KT M03/M12 A3021 RMK A01 T10321118  RH  052%=      5-min Rain = 0
KAM1 010611Z 04008KT M03/M12 A3021 RMK A01 T10321117  RH  052%=      5-min Rain = 0
KAM1 010612Z 04008KT M03/M12 A3021 RMK A01 T10321116  RH  052%=      5-min Rain = 0
KAM1 010613Z 04008KT M03/M12 A3021 RMK A01 T10311116  RH  052%=      5-min Rain = 0
KAM1 010614Z 04007KT M03/M12 A3021 RMK A01 T10311116  RH  052%=      5-min Rain = 0
KAM1 010615Z 04007KT M03/M12 A3021 RMK A01 T10311115  RH  052%=      5-min Rain = 0
KAM1 010616Z 05006KT M03/M12 A3021 RMK A01 T10311115  RH  052%=      5-min Rain = 0
KAM1 010617Z 05006KT M03/M12 A3021 RMK A01 T10301115  RH  052%=      5-min Rain = 0
KAM1 010618Z 05006KT M03/M12 A3021 RMK A01 T10301115  RH  052%=      5-min Rain = 0
KAM1 010619Z 05007KT M03/M11 A3021 RMK A01 T10291114  RH  052%=      5-min Rain = 0
KAM1 010620Z 05007KT M03/M11 A3021 RMK A01 T10281114  RH  052%=      5-min Rain = 0
KAM1 010621Z 04007KT M03/M12 A3021 RMK A01 T10281115  RH  051%=      5-min Rain = 0
KAM1 010622Z 04007KT M03/M12 A3021 RMK A01 T10281115  RH  051%=      5-min Rain = 0
KAM1 010623Z 04008KT M03/M12 A3021 RMK A01 T10281116  RH  051%=      5-min Rain = 0
KAM1 010624Z 04008KT M03/M12 A3021 RMK A01 T10281116  RH  051%=      5-min Rain = 0
KAM1 010625Z 04008KT M03/M12 A3021 RMK A01 T10291117  RH  051%=      5-min Rain = 0
KAM1 010626Z 04008KT M03/M12 A3021 RMK A01 T10311118  RH  051%=      5-min Rain = 0
KAM1 010627Z 04008KT M03/M12 A3021 RMK A01 T10321118  RH  051%=      5-min Rain = 0
KAM1 010628Z 04008KT M03/M12 A3021 RMK A01 T10331118  RH  052%=      5-min Rain = 0
KAM1 010629Z 04008KT M03/M12 A3021 RMK A01 T10341118  RH  052%=      5-min Rain = 0
KAM1 010630Z 04008KT M04/M12 A3021 RMK A01 T10351118  RH  052%=      5-min Rain = 0
KAM1 010631Z 04008KT M04/M12 A3021 RMK A01 T10351118  RH  053%=      5-min Rain = 0
KAM1 010632Z 04008KT M04/M12 A3021 RMK A01 T10361117  RH  053%=      5-min Rain = 0
KAM1 010633Z 04008KT M04/M12 A3021 RMK A01 T10361117  RH  053%=      5-min Rain = 0
KAM1 010634Z 04008KT M04/M12 A3021 RMK A01 T10371118  RH  053%=      5-min Rain = 0
KAM1 010635Z 04008KT M04/M12 A3021 RMK A01 T10371118  RH  054%=      5-min Rain = 0
KAM1 010636Z 04009KT M04/M12 A3021 RMK A01 T10381118  RH  054%=      5-min Rain = 0
KAM1 010637Z 04009KT M04/M12 A3021 RMK A01 T10391118  RH  054%=      5-min Rain = 0
KAM1 010638Z 04008KT M04/M12 A3021 RMK A01 T10391119  RH  054%=      5-min Rain = 0
KAM1 010639Z 04008KT M04/M12 A3021 RMK A01 T10401119  RH  054%=      5-min Rain = 0
KAM1 010640Z 04008KT M04/M12 A3021 RMK A01 T10411118  RH  055%=      5-min Rain = 0
KAM1 010641Z 04008KT M04/M12 A3021 RMK A01 T10411119  RH  055%=      5-min Rain = 0
KAM1 010642Z 04008KT M04/M12 A3021 RMK A01 T10411118  RH  055%=      5-min Rain = 0
KAM1 010643Z 04008KT M04/M12 A3021 RMK A01 T10411118  RH  055%=      5-min Rain = 0
KAM1 010644Z 04008KT M04/M12 A3021 RMK A01 T10401116  RH  055%=      5-min Rain = 0
KAM1 010645Z 04008KT M04/M12 A3021 RMK A01 T10401116  RH  056%=      5-min Rain = 0
KAM1 010646Z 04008KT M04/M12 A3021 RMK A01 T10391115  RH  056%=      5-min Rain = 0
KAM1 010647Z 05008KT M04/M11 A3021 RMK A01 T10381114  RH  056%=      5-min Rain = 0
KAM1 010648Z 05008KT M04/M11 A3021 RMK A01 T10361113  RH  055%=      5-min Rain = 0
KAM1 010649Z 05008KT M03/M11 A3021 RMK A01 T10341111  RH  055%=      5-min Rain = 0
KAM1 010650Z 05008KT M03/M11 A3021 RMK A01 T10321111  RH  055%=      5-min Rain = 0
KAM1 010651Z 04007KT M03/M11 A302 RMK A01 T10301110  RH  054%=      5-min Rain = 0
KAM1 010652Z 04007KT M03/M11 A302 RMK A01 T10291110  RH  053%=      5-min Rain = 0
KAM1 010653Z 04007KT M03/M11 A302 RMK A01 T10281110  RH  053%=      5-min Rain = 0
KAM1 010654Z 05007KT M03/M11 A302 RMK A01 T10281111  RH  053%=      5-min Rain = 0
KAM1 010655Z 05007KT M03/M11 A302 RMK A01 T10281111  RH  053%=      5-min Rain = 0
KAM1 010656Z 05008KT M03/M11 A3021 RMK A01 T10281111  RH  053%=      5-min Rain = 0
KAM1 010657Z 04008KT M03/M11 A3021 RMK A01 T10281111  RH  053%=      5-min Rain = 0
KAM1 010658Z 04007KT M03/M11 A3021 RMK A01 T10281111  RH  053%=      5-min Rain = 0
KAM1 010659Z 04007KT M03/M11 A3021 RMK A01 T10281111  RH  053%=      5-min Rain = 0
KAM1 010700Z 04006KT M03/M11 A3021 RMK A01 T10281111  RH  053%=      5-min Rain = 0
KAM1 010701Z 04006KT M03/M11 A3021 RMK A01 T10281111  RH  053%=      5-min Rain = 0
KAM1 010702Z 04007KT M03/M11 A3021 RMK A01 T10281111  RH  053%=      5-min Rain = 0
KAM1 010703Z 04007KT M03/M11 A3021 RMK A01 T10281111  RH  053%=      5-min Rain = 0
KAM1 010704Z 04007KT M03/M11 A3021 RMK A01 T10281111  RH  053%=      5-min Rain = 0
KAM1 010705Z 04008KT M03/M11 A3021 RMK A01 T10281111  RH  053%=      5-min Rain = 0
KAM1 010706Z 04008KT M03/M11 A3021 RMK A01 T10291110  RH  053%=      5-min Rain = 0
KAM1 010707Z 04007KT M03/M11 A3021 RMK A01 T10281110  RH  053%=      5-min Rain = 0
KAM1 010708Z 04007KT M03/M11 A3021 RMK A01 T10291110  RH  054%=      5-min Rain = 0
KAM1 010709Z 04007KT M03/M11 A3021 RMK A01 T10281109  RH  054%=      5-min Rain = 0
KAM1 010710Z 04008KT M03/M11 A3022 RMK A01 T10281109  RH  054%=      5-min Rain = 0
KAM1 010711Z 04008KT M03/M11 A3022 RMK A01 T10281109  RH  054%=      5-min Rain = 0
KAM1 010712Z 04008KT M03/M11 A3022 RMK A01 T10281108  RH  054%=      5-min Rain = 0
KAM1 010713Z 04008KT M03/M11 A3022 RMK A01 T10271107  RH  054%=      5-min Rain = 0
KAM1 010714Z 04008KT M03/M11 A3022 RMK A01 T10261107  RH  054%=      5-min Rain = 0
KAM1 010715Z 04008KT M03/M11 A3022 RMK A01 T10261107  RH  054%=      5-min Rain = 0
KAM1 010716Z 04007KT M03/M11 A3022 RMK A01 T10251107  RH  054%=      5-min Rain = 0
KAM1 010717Z 04007KT M03/M11 A3022 RMK A01 T10251107  RH  053%=      5-min Rain = 0
KAM1 010718Z 04008KT M03/M11 A3022 RMK A01 T10251107  RH  053%=      5-min Rain = 0
KAM1 010719Z 04008KT M03/M11 A3022 RMK A01 T10251107  RH  053%=      5-min Rain = 0
KAM1 010720Z 04008KT M02/M11 A3022 RMK A01 T10241107  RH  053%=      5-min Rain = 0
KAM1 010721Z 04008KT M02/M11 A3022 RMK A01 T10241107  RH  053%=      5-min Rain = 0
KAM1 010722Z 05008KT M02/M11 A3022 RMK A01 T10231107  RH  053%=      5-min Rain = 0
KAM1 010723Z 04008KT M02/M11 A3022 RMK A01 T10231106  RH  053%=      5-min Rain = 0
KAM1 010724Z 04008KT M02/M11 A3022 RMK A01 T10221106  RH  053%=      5-min Rain = 0
KAM1 010725Z 04008KT M02/M11 A3022 RMK A01 T10211105  RH  053%=      5-min Rain = 0
KAM1 010726Z 05007KT M02/M11 A3022 RMK A01 T10211106  RH  052%=      5-min Rain = 0
KAM1 010727Z 05008KT M02/M11 A3022 RMK A01 T10211106  RH  052%=      5-min Rain = 0
KAM1 010728Z 05008KT M02/M11 A3022 RMK A01 T10211106  RH  052%=      5-min Rain = 0
KAM1 010729Z 05008KT M02/M11 A3022 RMK A01 T10221107  RH  052%=      5-min Rain = 0
KAM1 010730Z 04008KT M02/M11 A3022 RMK A01 T10221107  RH  052%=      5-min Rain = 0
KAM1 010731Z 04008KT M02/M11 A3022 RMK A01 T10221106  RH  053%=      5-min Rain = 0
KAM1 010732Z 04008KT M02/M11 A3022 RMK A01 T10221106  RH  053%=      5-min Rain = 0
KAM1 010733Z 04008KT M02/M11 A3022 RMK A01 T10221106  RH  053%=      5-min Rain = 0
KAM1 010734Z 04007KT M02/M11 A3022 RMK A01 T10231106  RH  053%=      5-min Rain = 0
KAM1 010735Z 05007KT M02/M11 A3022 RMK A01 T10221106  RH  053%=      5-min Rain = 0
KAM1 010736Z 05008KT M02/M11 A3022 RMK A01 T10221106  RH  053%=      5-min Rain = 0
KAM1 010737Z 05008KT M02/M11 A3022 RMK A01 T10221106  RH  052%=      5-min Rain = 0
KAM1 010738Z 04008KT M02/M11 A3022 RMK A01 T10211105  RH  052%=      5-min Rain = 0
KAM1 010739Z 05008KT M02/M11 A3022 RMK A01 T10201105  RH  052%=      5-min Rain = 0
KAM1 010740Z 05008KT M02/M11 A3022 RMK A01 T10201105  RH  052%=      5-min Rain = 0
KAM1 010741Z 05008KT M02/M11 A3022 RMK A01 T10201105  RH  052%=      5-min Rain = 0
KAM1 010742Z 05008KT M02/M11 A3022 RMK A01 T10201105  RH  052%=      5-min Rain = 0
KAM1 010743Z 05008KT M02/M11 A3022 RMK A01 T10201105  RH  052%=      5-min Rain = 0
KAM1 010744Z 05007KT M02/M11 A3022 RMK A01 T10201105  RH  052%=      5-min Rain = 0
KAM1 010745Z 05008KT M02/M10 A3022 RMK A01 T10191104  RH  052%=      5-min Rain = 0
KAM1 010746Z 05008KT M02/M10 A3023 RMK A01 T10181103  RH  052%=      5-min Rain = 0
KAM1 010747Z 05008KT M02/M10 A3023 RMK A01 T10181102  RH  052%=      5-min Rain = 0
KAM1 010748Z 05008KT M02/M10 A3023 RMK A01 T10161101  RH  052%=      5-min Rain = 0
KAM1 010749Z 05008KT M02/M10 A3023 RMK A01 T10151101  RH  052%=      5-min Rain = 0
KAM1 010750Z 05007KT M02/M10 A3023 RMK A01 T10151102  RH  052%=      5-min Rain = 0
KAM1 010751Z 06007KT M02/M10 A3022 RMK A01 T10151102  RH  052%=      5-min Rain = 0
KAM1 010752Z 06007KT M01/M10 A3022 RMK A01 T10141101  RH  051%=      5-min Rain = 0
KAM1 010753Z 06007KT M01/M10 A3023 RMK A01 T10141101  RH  051%=      5-min Rain = 0
KAM1 010754Z 06007KT M01/M10 A3023 RMK A01 T10141102  RH  051%=      5-min Rain = 0
KAM1 010755Z 06008KT M02/M10 A3023 RMK A01 T10151102  RH  051%=      5-min Rain = 0
KAM1 010756Z 06007KT M02/M10 A3023 RMK A01 T10151102  RH  052%=      5-min Rain = 0
KAM1 010757Z 06007KT M02/M10 A3023 RMK A01 T10151102  RH  052%=      5-min Rain = 0
KAM1 010758Z 06007KT M02/M10 A3023 RMK A01 T10151102  RH  052%=      5-min Rain = 0
KAM1 010759Z 06007KT M02/M10 A3023 RMK A01 T10151102  RH  052%=      5-min Rain = 0
KAM1 010800Z 06007KT M02/M10 A3023 RMK A01 T10161102  RH  052%=      5-min Rain = 0
KAM1 010801Z 06007KT M02/M10 A3023 RMK A01 T10161102  RH  052%=      5-min Rain = 0
KAM1 010802Z 06007KT M02/M10 A3023 RMK A01 T10161102  RH  052%=      5-min Rain = 0
KAM1 010803Z 06007KT M02/M10 A3023 RMK A01 T10161102  RH  052%=      5-min Rain = 0
KAM1 010804Z 06007KT M02/M10 A3023 RMK A01 T10151101  RH  052%=      5-min Rain = 0
KAM1 010805Z 06007KT M02/M10 A3023 RMK A01 T10151101  RH  052%=      5-min Rain = 0
KAM1 010806Z 06007KT M01/M10 A3023 RMK A01 T10141100  RH  052%=      5-min Rain = 0
KAM1 010807Z 06007KT M01/M10 A3023 RMK A01 T10141100  RH  052%=      5-min Rain = 0
KAM1 010808Z 07007KT M01/M10 A3024 RMK A01 T10141100  RH  052%=      5-min Rain = 0
KAM1 010809Z 06007KT M01/M10 A3024 RMK A01 T10141100  RH  052%=      5-min Rain = 0
KAM1 010810Z 07007KT M01/M10 A3024 RMK A01 T10141100  RH  052%=      5-min Rain = 0
KAM1 010811Z 07008KT M01/M10 A3024 RMK A01 T10131100  RH  052%=      5-min Rain = 0
KAM1 010812Z 07008KT M01/M10 A3024 RMK A01 T10131100  RH  052%=      5-min Rain = 0
KAM1 010813Z 07008KT M01/M10 A3024 RMK A01 T10131100  RH  052%=      5-min Rain = 0
KAM1 010814Z 07008KT M01/M10 A3024 RMK A01 T10131100  RH  052%=      5-min Rain = 0
KAM1 010815Z 07008KT M01/M10 A3024 RMK A01 T10131099  RH  052%=      5-min Rain = 0
KAM1 010816Z 07007KT M01/M10 A3024 RMK A01 T10131099  RH  052%=      5-min Rain = 0
KAM1 010817Z 08007KT M01/M10 A3024 RMK A01 T10131099  RH  052%=      5-min Rain = 0
KAM1 010818Z 08007KT M01/M10 A3024 RMK A01 T10131099  RH  052%=      5-min Rain = 0
KAM1 010819Z 08006KT M01/M10 A3024 RMK A01 T10131099  RH  052%=      5-min Rain = 0
KAM1 010820Z 08006KT M01/M10 A3024 RMK A01 T10141099  RH  052%=      5-min Rain = 0
KAM1 010821Z 08006KT M01/M10 A3024 RMK A01 T10141099  RH  052%=      5-min Rain = 0
KAM1 010822Z 07006KT M02/M10 A3024 RMK A01 T10151099  RH  053%=      5-min Rain = 0
KAM1 010823Z 07006KT M02/M10 A3024 RMK A01 T10151099  RH  053%=      5-min Rain = 0
KAM1 010824Z 07007KT M02/M10 A3024 RMK A01 T10151099  RH  053%=      5-min Rain = 0
KAM1 010825Z 07007KT M02/M10 A3024 RMK A01 T10151099  RH  053%=      5-min Rain = 0
KAM1 010826Z 07007KT M02/M10 A3024 RMK A01 T10151099  RH  053%=      5-min Rain = 0
KAM1 010827Z 07007KT M01/M10 A3024 RMK A01 T10141099  RH  052%=      5-min Rain = 0
KAM1 010828Z 07006KT M01/M10 A3024 RMK A01 T10141099  RH  052%=      5-min Rain = 0
KAM1 010829Z 08006KT M01/M10 A3025 RMK A01 T10141099  RH  052%=      5-min Rain = 0
KAM1 010830Z 08006KT M01/M10 A3025 RMK A01 T10131099  RH  052%=      5-min Rain = 0
KAM1 010831Z 08006KT M01/M10 A3025 RMK A01 T10131099  RH  052%=      5-min Rain = 0
KAM1 010832Z 08006KT M01/M10 A3025 RMK A01 T10131099  RH  052%=      5-min Rain = 0
KAM1 010833Z 07005KT M01/M10 A3025 RMK A01 T10131099  RH  052%=      5-min Rain = 0
KAM1 010834Z 07006KT M01/M10 A3025 RMK A01 T10131099  RH  052%=      5-min Rain = 0
KAM1 010835Z 07006KT M01/M10 A3025 RMK A01 T10131099  RH  052%=      5-min Rain = 0
KAM1 010836Z 07006KT M01/M10 A3025 RMK A01 T10131099  RH  052%=      5-min Rain = 0
KAM1 010837Z 07006KT M01/M10 A3025 RMK A01 T10131099  RH  052%=      5-min Rain = 0
KAM1 010838Z 06006KT M01/M10 A3025 RMK A01 T10131099  RH  052%=      5-min Rain = 0
KAM1 010839Z 06006KT M01/M10 A3025 RMK A01 T10131099  RH  052%=      5-min Rain = 0
KAM1 010840Z 06007KT M01/M10 A3024 RMK A01 T10131098  RH  052%=      5-min Rain = 0
KAM1 010841Z 06007KT M01/M10 A3024 RMK A01 T10131098  RH  052%=      5-min Rain = 0
KAM1 010842Z 06007KT M01/M10 A3024 RMK A01 T10121097  RH  052%=      5-min Rain = 0
KAM1 010843Z 06008KT M01/M10 A3024 RMK A01 T10111097  RH  052%=      5-min Rain = 0
KAM1 010844Z 06008KT M01/M10 A3024 RMK A01 T10101097  RH  052%=      5-min Rain = 0
KAM1 010845Z 06008KT M01/M10 A3024 RMK A01 T10101097  RH  052%=      5-min Rain = 0
KAM1 010846Z 05008KT M01/M10 A3024 RMK A01 T10091097  RH  051%=      5-min Rain = 0
KAM1 010847Z 05007KT M01/M10 A3024 RMK A01 T10091097  RH  051%=      5-min Rain = 0
KAM1 010848Z 05008KT M01/M10 A3024 RMK A01 T10081097  RH  051%=      5-min Rain = 0
KAM1 010849Z 05009KT M01/M10 A3024 RMK A01 T10091097  RH  051%=      5-min Rain = 0
KAM1 010850Z 06009KT M01/M10 A3024 RMK A01 T10091098  RH  051%=      5-min Rain = 0
KAM1 010851Z 06008KT M01/M10 A3024 RMK A01 T10091098  RH  051%=      5-min Rain = 0
KAM1 010852Z 06009KT M01/M10 A3024 RMK A01 T10081098  RH  051%=      5-min Rain = 0
KAM1 010853Z 05008KT M01/M10 A3023 RMK A01 T10081098  RH  051%=      5-min Rain = 0
KAM1 010854Z 05008KT M01/M10 A3023 RMK A01 T10091098  RH  051%=      5-min Rain = 0
KAM1 010855Z 05008KT M01/M10 A3023 RMK A01 T10091098  RH  051%=      5-min Rain = 0
KAM1 010856Z 05008KT M01/M10 A3023 RMK A01 T10101098  RH  051%=      5-min Rain = 0
KAM1 010857Z 05008KT M01/M10 A3023 RMK A01 T10111099  RH  051%=      5-min Rain = 0
KAM1 010858Z 05008KT M01/M10 A3023 RMK A01 T10121099  RH  052%=      5-min Rain = 0
KAM1 010859Z 04008KT M01/M10 A3023 RMK A01 T10131099  RH  052%=      5-min Rain = 0
KAM1 010900Z 05009KT M01/M10 A3023 RMK A01 T10131099  RH  052%=      5-min Rain = 0
KAM1 010901Z 05008KT M01/M10 A3023 RMK A01 T10141099  RH  052%=      5-min Rain = 0
KAM1 010902Z 05008KT M01/M10 A3023 RMK A01 T10141099  RH  053%=      5-min Rain = 0
KAM1 010903Z 05008KT M02/M10 A3023 RMK A01 T10151099  RH  053%=      5-min Rain = 0
KAM1 010904Z 05008KT M02/M10 A3023 RMK A01 T10161099  RH  053%=      5-min Rain = 0
KAM1 010905Z 05008KT M02/M10 A3023 RMK A01 T10161099  RH  053%=      5-min Rain = 0
KAM1 010906Z 05008KT M02/M10 A3023 RMK A01 T10161099  RH  053%=      5-min Rain = 0
KAM1 010907Z 05008KT M02/M10 A3023 RMK A01 T10161099  RH  053%=      5-min Rain = 0
KAM1 010908Z 05008KT M02/M10 A3023 RMK A01 T10161099  RH  053%=      5-min Rain = 0
KAM1 010909Z 05007KT M02/M10 A3023 RMK A01 T10171099  RH  053%=      5-min Rain = 0
KAM1 010910Z 05007KT M02/M10 A3023 RMK A01 T10171099  RH  053%=      5-min Rain = 0
KAM1 010911Z 05007KT M02/M10 A3023 RMK A01 T10171099  RH  054%=      5-min Rain = 0
KAM1 010912Z 05008KT M02/M10 A3023 RMK A01 T10171099  RH  054%=      5-min Rain = 0
KAM1 010913Z 05007KT M02/M10 A3023 RMK A01 T10171099  RH  054%=      5-min Rain = 0
KAM1 010914Z 05007KT M02/M10 A3023 RMK A01 T10171099  RH  054%=      5-min Rain = 0
KAM1 010915Z 05007KT M02/M10 A3023 RMK A01 T10161098  RH  054%=      5-min Rain = 0
KAM1 010916Z 04007KT M02/M10 A3023 RMK A01 T10161098  RH  054%=      5-min Rain = 0
KAM1 010917Z 04007KT M02/M10 A3023 RMK A01 T10161098  RH  054%=      5-min Rain = 0
KAM1 010918Z 04008KT M02/M10 A3022 RMK A01 T10161098  RH  054%=      5-min Rain = 0
KAM1 010919Z 04008KT M02/M10 A3022 RMK A01 T10161098  RH  054%=      5-min Rain = 0
KAM1 010920Z 04008KT M02/M10 A3022 RMK A01 T10161098  RH  054%=      5-min Rain = 0
KAM1 010921Z 03008KT M02/M10 A3022 RMK A01 T10161097  RH  054%=      5-min Rain = 0
KAM1 010922Z 03007KT M02/M10 A3022 RMK A01 T10161097  RH  054%=      5-min Rain = 0
KAM1 010923Z 03007KT M02/M10 A3022 RMK A01 T10151096  RH  054%=      5-min Rain = 0
KAM1 010924Z 03007KT M02/M10 A3022 RMK A01 T10151096  RH  054%=      5-min Rain = 0
KAM1 010925Z 03007KT M02/M10 A3022 RMK A01 T10151096  RH  054%=      5-min Rain = 0
KAM1 010926Z 03007KT M02/M10 A3022 RMK A01 T10151095  RH  054%=      5-min Rain = 0
KAM1 010927Z 03007KT M02/M10 A3022 RMK A01 T10151095  RH  054%=      5-min Rain = 0
KAM1 010928Z 03008KT M02/M10 A3022 RMK A01 T10151095  RH  054%=      5-min Rain = 0
KAM1 010929Z 03007KT M02/M10 A3022 RMK A01 T10151095  RH  054%=      5-min Rain = 0
KAM1 010930Z 03007KT M02/M10 A3022 RMK A01 T10151095  RH  054%=      5-min Rain = 0
KAM1 010931Z 03006KT M02/M10 A3022 RMK A01 T10151095  RH  054%=      5-min Rain = 0
KAM1 010932Z 03007KT M02/M10 A3022 RMK A01 T10151095  RH  054%=      5-min Rain = 0
KAM1 010933Z 03007KT M02/M10 A3022 RMK A01 T10151095  RH  054%=      5-min Rain = 0
KAM1 010934Z 03007KT M02/M10 A3022 RMK A01 T10151095  RH  054%=      5-min Rain = 0
KAM1 010935Z 03007KT M02/M10 A3022 RMK A01 T10151095  RH  055%=      5-min Rain = 0
KAM1 010936Z 03007KT M02/M10 A3022 RMK A01 T10151095  RH  055%=      5-min Rain = 0
KAM1 010937Z 03007KT M02/M10 A3022 RMK A01 T10151095  RH  055%=      5-min Rain = 0
KAM1 010938Z 03007KT M02/M10 A3022 RMK A01 T10161095  RH  055%=      5-min Rain = 0
KAM1 010939Z 03006KT M02/M10 A3022 RMK A01 T10151095  RH  055%=      5-min Rain = 0
KAM1 010940Z 02006KT M02/M10 A3022 RMK A01 T10151095  RH  055%=      5-min Rain = 0
KAM1 010941Z 02006KT M02/M09 A3022 RMK A01 T10151094  RH  055%=      5-min Rain = 0
KAM1 010942Z 02006KT M02/M09 A3022 RMK A01 T10151094  RH  055%=      5-min Rain = 0
KAM1 010943Z 03006KT M02/M09 A3023 RMK A01 T10151094  RH  055%=      5-min Rain = 0
KAM1 010944Z 03005KT M02/M09 A3023 RMK A01 T10151094  RH  055%=      5-min Rain = 0
KAM1 010945Z 03006KT M02/M09 A3023 RMK A01 T10151094  RH  055%=      5-min Rain = 0
KAM1 010946Z 03005KT M01/M09 A3023 RMK A01 T10141094  RH  055%=      5-min Rain = 0
KAM1 010947Z 02006KT M01/M09 A3023 RMK A01 T10141093  RH  055%=      5-min Rain = 0
KAM1 010948Z 02006KT M01/M09 A3023 RMK A01 T10141093  RH  055%=      5-min Rain = 0
KAM1 010949Z 02005KT M01/M09 A3023 RMK A01 T10141093  RH  055%=      5-min Rain = 0
KAM1 010950Z 02005KT M01/M09 A3022 RMK A01 T10141093  RH  055%=      5-min Rain = 0
KAM1 010951Z 02005KT M01/M09 A3022 RMK A01 T10141093  RH  055%=      5-min Rain = 0
KAM1 010952Z 02006KT M01/M09 A3022 RMK A01 T10141093  RH  055%=      5-min Rain = 0
KAM1 010953Z 02006KT M01/M09 A3022 RMK A01 T10131093  RH  055%=      5-min Rain = 0
KAM1 010954Z 02006KT M01/M09 A3022 RMK A01 T10131092  RH  055%=      5-min Rain = 0
KAM1 010955Z 02007KT M01/M09 A3022 RMK A01 T10131092  RH  055%=      5-min Rain = 0
KAM1 010956Z 02006KT M01/M09 A3022 RMK A01 T10131092  RH  055%=      5-min Rain = 0
KAM1 010957Z 02007KT M01/M09 A3021 RMK A01 T10131092  RH  055%=      5-min Rain = 0
KAM1 010958Z 01007KT M01/M09 A3021 RMK A01 T10131092  RH  055%=      5-min Rain = 0
KAM1 010959Z 01008KT M01/M09 A3021 RMK A01 T10131091  RH  055%=      5-min Rain = 0
KAM1 011000Z 01008KT M01/M09 A3021 RMK A01 T10131091  RH  055%=      5-min Rain = 0
KAM1 011001Z 01008KT M01/M09 A3021 RMK A01 T10131091  RH  055%=      5-min Rain = 0
KAM1 011002Z 01008KT M01/M09 A3021 RMK A01 T10131091  RH  055%=      5-min Rain = 0
KAM1 011003Z 01008KT M01/M09 A3021 RMK A01 T10131091  RH  055%=      5-min Rain = 0
KAM1 011004Z 01008KT M01/M09 A3021 RMK A01 T10121091  RH  055%=      5-min Rain = 0
KAM1 011005Z 01008KT M01/M09 A302 RMK A01 T10121091  RH  055%=      5-min Rain = 0
KAM1 011006Z 01008KT M01/M09 A302 RMK A01 T10121090  RH  055%=      5-min Rain = 0
KAM1 011007Z 02007KT M01/M09 A302 RMK A01 T10121090  RH  055%=      5-min Rain = 0
KAM1 011008Z 02008KT M01/M09 A302 RMK A01 T10111090  RH  055%=      5-min Rain = 0
KAM1 011009Z 02008KT M01/M09 A302 RMK A01 T10121090  RH  055%=      5-min Rain = 0
KAM1 011010Z 02007KT M01/M09 A3021 RMK A01 T10111090  RH  055%=      5-min Rain = 0
KAM1 011011Z 02007KT M01/M09 A3021 RMK A01 T10111090  RH  055%=      5-min Rain = 0
KAM1 011012Z 02007KT M01/M09 A3021 RMK A01 T10111090  RH  055%=      5-min Rain = 0
KAM1 011013Z 02007KT M01/M09 A3021 RMK A01 T10111090  RH  055%=      5-min Rain = 0
KAM1 011014Z 02007KT M01/M09 A3021 RMK A01 T10101090  RH  055%=      5-min Rain = 0
KAM1 011015Z 02008KT M01/M09 A3021 RMK A01 T10101090  RH  055%=      5-min Rain = 0
KAM1 011016Z 03007KT M01/M09 A3021 RMK A01 T10091090  RH  054%=      5-min Rain = 0
KAM1 011017Z 03007KT M01/M09 A3021 RMK A01 T10091090  RH  054%=      5-min Rain = 0
KAM1 011018Z 03007KT M01/M09 A3022 RMK A01 T10081090  RH  054%=      5-min Rain = 0
KAM1 011019Z 03007KT M01/M09 A3022 RMK A01 T10081090  RH  054%=      5-min Rain = 0
KAM1 011020Z 03007KT M01/M09 A3022 RMK A01 T10081090  RH  054%=      5-min Rain = 0
KAM1 011021Z 03007KT M01/M09 A3022 RMK A01 T10081090  RH  054%=      5-min Rain = 0
KAM1 011022Z 03007KT M01/M09 A3022 RMK A01 T10081090  RH  054%=      5-min Rain = 0
KAM1 011023Z 03007KT M01/M09 A3023 RMK A01 T10071090  RH  054%=      5-min Rain = 0
KAM1 011024Z 03006KT M01/M09 A3023 RMK A01 T10071090  RH  053%=      5-min Rain = 0
KAM1 011025Z 03006KT M01/M09 A3023 RMK A01 T10071090  RH  053%=      5-min Rain = 0
KAM1 011026Z 04006KT M01/M09 A3023 RMK A01 T10071090  RH  053%=      5-min Rain = 0
KAM1 011027Z 04006KT M01/M09 A3024 RMK A01 T10071090  RH  053%=      5-min Rain = 0
KAM1 011028Z 04006KT M01/M09 A3024 RMK A01 T10071090  RH  053%=      5-min Rain = 0
KAM1 011029Z 04006KT M01/M09 A3024 RMK A01 T10061090  RH  053%=      5-min Rain = 0
KAM1 011030Z 04005KT M01/M09 A3024 RMK A01 T10071090  RH  053%=      5-min Rain = 0
KAM1 011031Z 04005KT M01/M09 A3024 RMK A01 T10071090  RH  053%=      5-min Rain = 0
KAM1 011032Z 04005KT M01/M09 A3024 RMK A01 T10081091  RH  053%=      5-min Rain = 0
KAM1 011033Z 04005KT M01/M09 A3024 RMK A01 T10091091  RH  054%=      5-min Rain = 0
KAM1 011034Z 04005KT M01/M09 A3024 RMK A01 T10091091  RH  054%=      5-min Rain = 0
KAM1 011035Z 04004KT M01/M09 A3024 RMK A01 T10101091  RH  054%=      5-min Rain = 0
KAM1 011036Z 04004KT M01/M09 A3024 RMK A01 T10111091  RH  054%=      5-min Rain = 0
KAM1 011037Z 05004KT M01/M09 A3024 RMK A01 T10121092  RH  055%=      5-min Rain = 0
KAM1 011038Z 05005KT M01/M09 A3024 RMK A01 T10131092  RH  055%=      5-min Rain = 0
KAM1 011039Z 04004KT M02/M09 A3024 RMK A01 T10151092  RH  055%=      5-min Rain = 0
KAM1 011040Z 04004KT M02/M09 A3024 RMK A01 T10161092  RH  056%=      5-min Rain = 0
KAM1 011041Z 04004KT M02/M09 A3024 RMK A01 T10161091  RH  056%=      5-min Rain = 0
KAM1 011042Z 02003KT M02/M09 A3024 RMK A01 T10161092  RH  056%=      5-min Rain = 0
KAM1 011043Z 02004KT M02/M09 A3024 RMK A01 T10171093  RH  056%=      5-min Rain = 0
KAM1 011044Z 03004KT M02/M09 A3025 RMK A01 T10191094  RH  056%=      5-min Rain = 0
KAM1 011045Z 03004KT M02/M09 A3025 RMK A01 T10201094  RH  057%=      5-min Rain = 0
KAM1 011046Z 04004KT M02/M09 A3025 RMK A01 T10201094  RH  057%=      5-min Rain = 0
KAM1 011047Z 05003KT M02/M09 A3025 RMK A01 T10201093  RH  058%=      5-min Rain = 0
KAM1 011048Z 06004KT M02/M09 A3025 RMK A01 T10201093  RH  058%=      5-min Rain = 0
KAM1 011049Z 07004KT M02/M09 A3026 RMK A01 T10201092  RH  058%=      5-min Rain = 0
KAM1 011050Z 06004KT M02/M09 A3026 RMK A01 T10191092  RH  057%=      5-min Rain = 0
KAM1 011051Z 06004KT M02/M09 A3026 RMK A01 T10191092  RH  057%=      5-min Rain = 0
KAM1 011052Z 06004KT M02/M09 A3026 RMK A01 T10191092  RH  057%=      5-min Rain = 0
KAM1 011053Z 06004KT M02/M09 A3026 RMK A01 T10181092  RH  057%=      5-min Rain = 0
KAM1 011054Z 06004KT M02/M09 A3026 RMK A01 T10191091  RH  058%=      5-min Rain = 0
KAM1 011055Z 07004KT M02/M09 A3026 RMK A01 T10191091  RH  058%=      5-min Rain = 0
KAM1 011056Z 07004KT M02/M09 A3026 RMK A01 T10191092  RH  058%=      5-min Rain = 0
KAM1 011057Z 07004KT M02/M09 A3026 RMK A01 T10191091  RH  058%=      5-min Rain = 0
KAM1 011058Z 07004KT M02/M09 A3026 RMK A01 T10201091  RH  058%=      5-min Rain = 0
KAM1 011059Z 06004KT M02/M09 A3026 RMK A01 T10201091  RH  058%=      5-min Rain = 0
KAM1 011100Z 06004KT M02/M09 A3026 RMK A01 T10201091  RH  059%=      5-min Rain = 0
KAM1 011101Z 06004KT M02/M09 A3026 RMK A01 T10211091  RH  059%=      5-min Rain = 0
KAM1 011102Z 06004KT M02/M09 A3026 RMK A01 T10211091  RH  059%=      5-min Rain = 0
KAM1 011103Z 06004KT M02/M09 A3026 RMK A01 T10221091  RH  059%=      5-min Rain = 0
KAM1 011104Z 05004KT M02/M09 A3026 RMK A01 T10231091  RH  059%=      5-min Rain = 0
KAM1 011105Z 05004KT M02/M09 A3026 RMK A01 T10231091  RH  060%=      5-min Rain = 0
KAM1 011106Z 04004KT M03/M09 A3026 RMK A01 T10251092  RH  060%=      5-min Rain = 0
KAM1 011107Z 03004KT M03/M09 A3026 RMK A01 T10251092  RH  060%=      5-min Rain = 0
KAM1 011108Z 03004KT M03/M09 A3027 RMK A01 T10261092  RH  061%=      5-min Rain = 0
KAM1 011109Z 03005KT M03/M09 A3027 RMK A01 T10271091  RH  061%=      5-min Rain = 0
KAM1 011110Z 03005KT M03/M09 A3027 RMK A01 T10271091  RH  061%=      5-min Rain = 0
KAM1 011111Z 03005KT M03/M09 A3027 RMK A01 T10261090  RH  061%=      5-min Rain = 0
KAM1 011112Z 03005KT M03/M09 A3027 RMK A01 T10251090  RH  061%=      5-min Rain = 0
KAM1 011113Z 03005KT M03/M09 A3027 RMK A01 T10251089  RH  061%=      5-min Rain = 0
KAM1 011114Z 03005KT M02/M09 A3027 RMK A01 T10241089  RH  061%=      5-min Rain = 0
KAM1 011115Z 03005KT M02/M09 A3027 RMK A01 T10241088  RH  061%=      5-min Rain = 0
KAM1 011116Z 03005KT M02/M09 A3027 RMK A01 T10231088  RH  061%=      5-min Rain = 0
KAM1 011117Z 03004KT M02/M09 A3027 RMK A01 T10231087  RH  061%=      5-min Rain = 0
KAM1 011118Z 03004KT M02/M09 A3027 RMK A01 T10231088  RH  061%=      5-min Rain = 0
KAM1 011119Z 03004KT M02/M09 A3027 RMK A01 T10231088  RH  061%=      5-min Rain = 0
KAM1 011120Z 03004KT M02/M09 A3027 RMK A01 T10231088  RH  061%=      5-min Rain = 0
KAM1 011121Z 02004KT M02/M09 A3027 RMK A01 T10221088  RH  061%=      5-min Rain = 0
KAM1 011122Z 02004KT M02/M09 A3027 RMK A01 T10221088  RH  061%=      5-min Rain = 0
KAM1 011123Z 02004KT M02/M09 A3028 RMK A01 T10231088  RH  061%=      5-min Rain = 0
KAM1 011124Z 02004KT M02/M09 A3028 RMK A01 T10231087  RH  061%=      5-min Rain = 0
KAM1 011125Z 02004KT M02/M09 A3028 RMK A01 T10231088  RH  061%=      5-min Rain = 0
KAM1 011126Z 01004KT M02/M09 A3028 RMK A01 T10241088  RH  062%=      5-min Rain = 0
KAM1 011127Z 00003KT M03/M09 A3028 RMK A01 T10251088  RH  062%=      5-min Rain = 0
KAM1 011128Z 01004KT M03/M09 A3028 RMK A01 T10251087  RH  062%=      5-min Rain = 0
KAM1 011129Z 01004KT M03/M09 A3028 RMK A01 T10251087  RH  062%=      5-min Rain = 0
KAM1 011130Z 01004KT M03/M09 A3028 RMK A01 T10251087  RH  062%=      5-min Rain = 0
KAM1 011131Z 01004KT M03/M09 A3028 RMK A01 T10251087  RH  062%=      5-min Rain = 0
KAM1 011132Z 01004KT M03/M09 A3028 RMK A01 T10251088  RH  062%=      5-min Rain = 0
KAM1 011133Z 00004KT M03/M09 A3029 RMK A01 T10261088  RH  062%=      5-min Rain = 0
KAM1 011134Z 00004KT M03/M09 A3029 RMK A01 T10261088  RH  062%=      5-min Rain = 0
KAM1 011135Z 35004KT M03/M09 A3029 RMK A01 T10261088  RH  062%=      5-min Rain = 0
KAM1 011136Z 35004KT M03/M09 A3029 RMK A01 T10261088  RH  062%=      5-min Rain = 0
KAM1 011137Z 35004KT M03/M09 A3029 RMK A01 T10251088  RH  062%=      5-min Rain = 0
KAM1 011138Z 35005KT M03/M09 A3029 RMK A01 T10251088  RH  062%=      5-min Rain = 0
KAM1 011139Z 35004KT M03/M09 A3029 RMK A01 T10251087  RH  062%=      5-min Rain = 0
KAM1 011140Z 35005KT M03/M09 A3029 RMK A01 T10251087  RH  062%=      5-min Rain = 0
KAM1 011141Z 35005KT M03/M09 A3029 RMK A01 T10251087  RH  062%=      5-min Rain = 0
KAM1 011142Z 35005KT M03/M09 A3029 RMK A01 T10251087  RH  062%=      5-min Rain = 0
KAM1 011143Z 35005KT M03/M09 A3029 RMK A01 T10251088  RH  062%=      5-min Rain = 0
KAM1 011144Z 35004KT M03/M09 A3029 RMK A01 T10251088  RH  062%=      5-min Rain = 0
KAM1 011145Z 35004KT M03/M09 A3029 RMK A01 T10251088  RH  062%=      5-min Rain = 0
KAM1 011146Z 35004KT M03/M09 A3029 RMK A01 T10251088  RH  062%=      5-min Rain = 0
KAM1 011147Z 34004KT M03/M09 A3029 RMK A01 T10251088  RH  062%=      5-min Rain = 0
KAM1 011148Z 34004KT M03/M09 A3029 RMK A01 T10261088  RH  062%=      5-min Rain = 0
KAM1 011149Z 34004KT M03/M09 A3029 RMK A01 T10261088  RH  062%=      5-min Rain = 0
KAM1 011150Z 34004KT M03/M09 A3029 RMK A01 T10261089  RH  062%=      5-min Rain = 0
KAM1 011151Z 34004KT M03/M09 A3029 RMK A01 T10261089  RH  062%=      5-min Rain = 0
KAM1 011152Z 34005KT M03/M09 A3029 RMK A01 T10271089  RH  062%=      5-min Rain = 0
KAM1 011153Z 33005KT M03/M09 A3029 RMK A01 T10271089  RH  062%=      5-min Rain = 0
KAM1 011154Z 33005KT M03/M09 A3029 RMK A01 T10281089  RH  062%=      5-min Rain = 0
KAM1 011155Z 33005KT M03/M09 A3029 RMK A01 T10281090  RH  063%=      5-min Rain = 0
KAM1 011156Z 33005KT M03/M09 A3029 RMK A01 T10291090  RH  063%=      5-min Rain = 0
KAM1 011157Z 33005KT M03/M09 A3029 RMK A01 T10291090  RH  063%=      5-min Rain = 0
KAM1 011158Z 33005KT M03/M09 A3029 RMK A01 T10301090  RH  063%=      5-min Rain = 0
KAM1 011159Z 32005KT M03/M09 A3029 RMK A01 T10301090  RH  064%=      5-min Rain = 0
KAM1 011200Z 32005KT M03/M09 A3029 RMK A01 T10301090  RH  064%=      5-min Rain = 0
KAM1 011201Z 32005KT M03/M09 A3029 RMK A01 T10311090  RH  064%=      5-min Rain = 0
KAM1 011202Z 33005KT M03/M09 A3029 RMK A01 T10321090  RH  064%=      5-min Rain = 0
KAM1 011203Z 33006KT M03/M09 A303 RMK A01 T10331090  RH  065%=      5-min Rain = 0
KAM1 011204Z 33006KT M03/M09 A303 RMK A01 T10341090  RH  065%=      5-min Rain = 0
KAM1 011205Z 33006KT M03/M09 A303 RMK A01 T10341090  RH  065%=      5-min Rain = 0
KAM1 011206Z 33006KT M04/M09 A303 RMK A01 T10351089  RH  066%=      5-min Rain = 0
KAM1 011207Z 33006KT M04/M09 A3029 RMK A01 T10351089  RH  066%=      5-min Rain = 0
KAM1 011208Z 33006KT M04/M09 A3029 RMK A01 T10351089  RH  066%=      5-min Rain = 0
KAM1 011209Z 33006KT M04/M09 A3029 RMK A01 T10361089  RH  066%=      5-min Rain = 0
KAM1 011210Z 33006KT M04/M09 A3029 RMK A01 T10361089  RH  067%=      5-min Rain = 0
KAM1 011211Z 33006KT M04/M09 A3029 RMK A01 T10361089  RH  067%=      5-min Rain = 0
KAM1 011212Z 34006KT M04/M09 A3029 RMK A01 T10361089  RH  067%=      5-min Rain = 0
KAM1 011213Z 34006KT M04/M09 A3029 RMK A01 T10371089  RH  067%=      5-min Rain = 0
KAM1 011214Z 34006KT M04/M09 A3029 RMK A01 T10371089  RH  067%=      5-min Rain = 0
KAM1 011215Z 35006KT M04/M09 A3029 RMK A01 T10371090  RH  067%=      5-min Rain = 0
KAM1 011216Z 35006KT M04/M09 A3029 RMK A01 T10381090  RH  067%=      5-min Rain = 0
KAM1 011217Z 35006KT M04/M09 A3029 RMK A01 T10381090  RH  067%=      5-min Rain = 0
KAM1 011218Z 35006KT M04/M09 A3029 RMK A01 T10371090  RH  067%=      5-min Rain = 0
KAM1 011219Z 35006KT M04/M09 A3029 RMK A01 T10371091  RH  066%=      5-min Rain = 0
KAM1 011220Z 35006KT M04/M09 A3029 RMK A01 T10371091  RH  066%=      5-min Rain = 0
KAM1 011221Z 35006KT M04/M09 A3029 RMK A01 T10361091  RH  066%=      5-min Rain = 0
KAM1 011222Z 36005KT M04/M09 A3029 RMK A01 T10361091  RH  066%=      5-min Rain = 0
KAM1 011223Z 35006KT M04/M09 A3029 RMK A01 T10361091  RH  065%=      5-min Rain = 0
KAM1 011224Z 36006KT M04/M09 A3029 RMK A01 T10361092  RH  065%=      5-min Rain = 0
KAM1 011225Z 35006KT M04/M09 A3029 RMK A01 T10351091  RH  065%=      5-min Rain = 0
KAM1 011226Z 35006KT M03/M09 A3029 RMK A01 T10341091  RH  065%=      5-min Rain = 0
KAM1 011227Z 35006KT M03/M09 A3029 RMK A01 T10341091  RH  065%=      5-min Rain = 0
KAM1 011228Z 35006KT M03/M09 A303 RMK A01 T10341092  RH  064%=      5-min Rain = 0
KAM1 011229Z 35007KT M03/M09 A303 RMK A01 T10331092  RH  064%=      5-min Rain = 0
KAM1 011230Z 35007KT M03/M09 A303 RMK A01 T10331091  RH  064%=      5-min Rain = 0
KAM1 011231Z 35007KT M03/M09 A303 RMK A01 T10321091  RH  064%=      5-min Rain = 0
KAM1 011232Z 35006KT M03/M09 A303 RMK A01 T10311090  RH  063%=      5-min Rain = 0
KAM1 011233Z 35006KT M03/M09 A303 RMK A01 T10301090  RH  063%=      5-min Rain = 0
KAM1 011234Z 35006KT M03/M09 A303 RMK A01 T10291090  RH  063%=      5-min Rain = 0
KAM1 011235Z 35006KT M03/M09 A303 RMK A01 T10291091  RH  063%=      5-min Rain = 0
KAM1 011236Z 35006KT M03/M09 A303 RMK A01 T10301091  RH  063%=      5-min Rain = 0
KAM1 011237Z 35006KT M03/M09 A303 RMK A01 T10291091  RH  063%=      5-min Rain = 0
KAM1 011238Z 35006KT M03/M09 A303 RMK A01 T10301091  RH  063%=      5-min Rain = 0
KAM1 011239Z 35006KT M03/M09 A303 RMK A01 T10301091  RH  062%=      5-min Rain = 0
KAM1 011240Z 35006KT M03/M09 A303 RMK A01 T10301091  RH  062%=      5-min Rain = 0
KAM1 011241Z 35006KT M03/M09 A303 RMK A01 T10291091  RH  062%=      5-min Rain = 0
KAM1 011242Z 35006KT M03/M09 A303 RMK A01 T10281091  RH  062%=      5-min Rain = 0
KAM1 011243Z 35006KT M03/M09 A303 RMK A01 T10281091  RH  062%=      5-min Rain = 0
KAM1 011244Z 36006KT M03/M09 A303 RMK A01 T10271090  RH  062%=      5-min Rain = 0
KAM1 011245Z 36005KT M03/M09 A303 RMK A01 T10281091  RH  062%=      5-min Rain = 0
KAM1 011246Z 36005KT M03/M09 A303 RMK A01 T10281091  RH  062%=      5-min Rain = 0
KAM1 011247Z 36005KT M03/M09 A303 RMK A01 T10281091  RH  062%=      5-min Rain = 0
KAM1 011248Z 36005KT M03/M09 A303 RMK A01 T10281091  RH  062%=      5-min Rain = 0
KAM1 011249Z 36006KT M03/M09 A303 RMK A01 T10281091  RH  062%=      5-min Rain = 0
KAM1 011250Z 36006KT M03/M09 A303 RMK A01 T10271091  RH  062%=      5-min Rain = 0
KAM1 011251Z 35006KT M03/M09 A3031 RMK A01 T10271091  RH  062%=      5-min Rain = 0
KAM1 011252Z 35006KT M03/M09 A3031 RMK A01 T10271091  RH  061%=      5-min Rain = 0
KAM1 011253Z 35006KT M03/M09 A3031 RMK A01 T10271091  RH  061%=      5-min Rain = 0
KAM1 011254Z 35006KT M03/M09 A3031 RMK A01 T10261091  RH  061%=      5-min Rain = 0
KAM1 011255Z 35006KT M03/M09 A3031 RMK A01 T10261091  RH  061%=      5-min Rain = 0
KAM1 011256Z 34006KT M03/M09 A3031 RMK A01 T10261091  RH  061%=      5-min Rain = 0
KAM1 011257Z 34006KT M03/M09 A3031 RMK A01 T10271092  RH  061%=      5-min Rain = 0
KAM1 011258Z 34007KT M03/M09 A3031 RMK A01 T10281092  RH  061%=      5-min Rain = 0
KAM1 011259Z 34007KT M03/M09 A3031 RMK A01 T10291092  RH  061%=      5-min Rain = 0
KAM1 011300Z 34007KT M03/M09 A3031 RMK A01 T10301092  RH  062%=      5-min Rain = 0
KAM1 011301Z 35007KT M03/M09 A3031 RMK A01 T10301092  RH  062%=      5-min Rain = 0
KAM1 011302Z 35007KT M03/M09 A3031 RMK A01 T10301092  RH  062%=      5-min Rain = 0
KAM1 011303Z 35007KT M03/M09 A3031 RMK A01 T10301092  RH  063%=      5-min Rain = 0
KAM1 011304Z 35007KT M03/M09 A3031 RMK A01 T10301092  RH  063%=      5-min Rain = 0
KAM1 011305Z 35007KT M03/M09 A3031 RMK A01 T10301091  RH  062%=      5-min Rain = 0
KAM1 011306Z 35007KT M03/M09 A3031 RMK A01 T10291091  RH  062%=      5-min Rain = 0
KAM1 011307Z 36007KT M03/M09 A3031 RMK A01 T10291092  RH  062%=      5-min Rain = 0
KAM1 011308Z 36007KT M03/M09 A3031 RMK A01 T10291092  RH  062%=      5-min Rain = 0
KAM1 011309Z 36008KT M03/M09 A3031 RMK A01 T10291091  RH  062%=      5-min Rain = 0
KAM1 011310Z 36008KT M03/M09 A3031 RMK A01 T10301091  RH  062%=      5-min Rain = 0
KAM1 011311Z 35008KT M03/M09 A3031 RMK A01 T10291091  RH  063%=      5-min Rain = 0
KAM1 011312Z 35008KT M03/M09 A3031 RMK A01 T10291091  RH  063%=      5-min Rain = 0
KAM1 011313Z 35007KT M03/M09 A3031 RMK A01 T10291090  RH  063%=      5-min Rain = 0
KAM1 011314Z 36007KT M03/M09 A3031 RMK A01 T10281090  RH  063%=      5-min Rain = 0
KAM1 011315Z 36007KT M03/M09 A3031 RMK A01 T10281089  RH  062%=      5-min Rain = 0
KAM1 011316Z 36008KT M03/M09 A3031 RMK A01 T10271089  RH  062%=      5-min Rain = 0
KAM1 011317Z 36008KT M03/M09 A3031 RMK A01 T10261089  RH  062%=      5-min Rain = 0
KAM1 011318Z 36008KT M03/M09 A3031 RMK A01 T10251088  RH  062%=      5-min Rain = 0
KAM1 011319Z 00007KT M02/M09 A3031 RMK A01 T10241088  RH  061%=      5-min Rain = 0
KAM1 011320Z 00007KT M02/M09 A3031 RMK A01 T10241089  RH  061%=      5-min Rain = 0
KAM1 011321Z 36008KT M02/M09 A3031 RMK A01 T10231089  RH  061%=      5-min Rain = 0
KAM1 011322Z 35008KT M02/M09 A3031 RMK A01 T10231089  RH  060%=      5-min Rain = 0
KAM1 011323Z 35008KT M02/M09 A3031 RMK A01 T10231089  RH  060%=      5-min Rain = 0
KAM1 011324Z 35008KT M02/M09 A3031 RMK A01 T10221089  RH  060%=      5-min Rain = 0
KAM1 011325Z 35008KT M02/M09 A3031 RMK A01 T10221089  RH  060%=      5-min Rain = 0
KAM1 011326Z 35008KT M02/M09 A3031 RMK A01 T10221089  RH  060%=      5-min Rain = 0
KAM1 011327Z 34007KT M02/M09 A3031 RMK A01 T10211089  RH  060%=      5-min Rain = 0
KAM1 011328Z 35007KT M02/M09 A3031 RMK A01 T10211089  RH  060%=      5-min Rain = 0
KAM1 011329Z 35007KT M02/M09 A3031 RMK A01 T10211089  RH  060%=      5-min Rain = 0
KAM1 011330Z 35006KT M02/M09 A3031 RMK A01 T10211089  RH  059%=      5-min Rain = 0
KAM1 011331Z 35006KT M02/M09 A3031 RMK A01 T10211090  RH  059%=      5-min Rain = 0
KAM1 011332Z 35006KT M02/M09 A3031 RMK A01 T10221090  RH  059%=      5-min Rain = 0
KAM1 011333Z 35007KT M02/M09 A3031 RMK A01 T10221091  RH  059%=      5-min Rain = 0
KAM1 011334Z 35007KT M02/M09 A3031 RMK A01 T10221091  RH  059%=      5-min Rain = 0
KAM1 011335Z 35007KT M02/M09 A3031 RMK A01 T10221091  RH  059%=      5-min Rain = 0
KAM1 011336Z 35006KT M02/M09 A3031 RMK A01 T10221092  RH  059%=      5-min Rain = 0
KAM1 011337Z 36007KT M02/M09 A3031 RMK A01 T10231092  RH  059%=      5-min Rain = 0
KAM1 011338Z 35006KT M02/M09 A3032 RMK A01 T10231092  RH  059%=      5-min Rain = 0
KAM1 011339Z 35006KT M02/M09 A3032 RMK A01 T10231092  RH  059%=      5-min Rain = 0
KAM1 011340Z 35006KT M02/M09 A3032 RMK A01 T10231092  RH  059%=      5-min Rain = 0
KAM1 011341Z 35007KT M02/M09 A3032 RMK A01 T10221092  RH  059%=      5-min Rain = 0
KAM1 011342Z 35006KT M02/M09 A3032 RMK A01 T10221093  RH  059%=      5-min Rain = 0
KAM1 011343Z 35007KT M02/M09 A3032 RMK A01 T10221092  RH  059%=      5-min Rain = 0
KAM1 011344Z 35007KT M02/M09 A3032 RMK A01 T10221093  RH  058%=      5-min Rain = 0
KAM1 011345Z 35006KT M02/M09 A3032 RMK A01 T10221093  RH  058%=      5-min Rain = 0
KAM1 011346Z 35006KT M02/M09 A3032 RMK A01 T10221093  RH  058%=      5-min Rain = 0
KAM1 011347Z 35006KT M02/M09 A3032 RMK A01 T10221093  RH  058%=      5-min Rain = 0
KAM1 011348Z 35005KT M02/M09 A3032 RMK A01 T10221093  RH  058%=      5-min Rain = 0
KAM1 011349Z 34005KT M02/M09 A3032 RMK A01 T10221093  RH  059%=      5-min Rain = 0
KAM1 011350Z 34005KT M02/M09 A3032 RMK A01 T10231092  RH  059%=      5-min Rain = 0
KAM1 011351Z 34005KT M02/M09 A3033 RMK A01 T10231092  RH  059%=      5-min Rain = 0
KAM1 011352Z 34005KT M02/M09 A3033 RMK A01 T10241092  RH  059%=      5-min Rain = 0
KAM1 011353Z 34005KT M02/M09 A3033 RMK A01 T10241093  RH  059%=      5-min Rain = 0
KAM1 011354Z 34006KT M02/M09 A3033 RMK A01 T10241093  RH  059%=      5-min Rain = 0
KAM1 011355Z 34006KT M02/M09 A3033 RMK A01 T10241093  RH  059%=      5-min Rain = 0
KAM1 011356Z 34007KT M02/M09 A3033 RMK A01 T10241094  RH  058%=      5-min Rain = 0
KAM1 011357Z 33007KT M02/M10 A3033 RMK A01 T10231095  RH  058%=      5-min Rain = 0
KAM1 011358Z 33007KT M02/M10 A3033 RMK A01 T10221095  RH  058%=      5-min Rain = 0
KAM1 011359Z 33007KT M02/M10 A3033 RMK A01 T10221095  RH  057%=      5-min Rain = 0
KAM1 011400Z 33007KT M02/M10 A3033 RMK A01 T10221095  RH  057%=      5-min Rain = 0
KAM1 011401Z 33007KT M02/M10 A3033 RMK A01 T10221095  RH  057%=      5-min Rain = 0
KAM1 011402Z 33008KT M02/M10 A3033 RMK A01 T10221095  RH  057%=      5-min Rain = 0
KAM1 011403Z 33007KT M02/M10 A3034 RMK A01 T10221096  RH  057%=      5-min Rain = 0
KAM1 011404Z 33007KT M02/M10 A3034 RMK A01 T10221097  RH  057%=      5-min Rain = 0
KAM1 011405Z 33006KT M02/M10 A3034 RMK A01 T10221097  RH  056%=      5-min Rain = 0
KAM1 011406Z 32005KT M02/M10 A3034 RMK A01 T10221096  RH  057%=      5-min Rain = 0
KAM1 011407Z 32006KT M02/M10 A3034 RMK A01 T10211095  RH  057%=      5-min Rain = 0
KAM1 011408Z 33006KT M02/M10 A3034 RMK A01 T10211096  RH  057%=      5-min Rain = 0
KAM1 011409Z 32006KT M02/M10 A3034 RMK A01 T10221097  RH  056%=      5-min Rain = 0
KAM1 011410Z 32006KT M02/M10 A3034 RMK A01 T10221097  RH  056%=      5-min Rain = 0
KAM1 011411Z 32005KT M02/M10 A3034 RMK A01 T10221097  RH  056%=      5-min Rain = 0
KAM1 011412Z 32005KT M02/M10 A3034 RMK A01 T10221097  RH  056%=      5-min Rain = 0
KAM1 011413Z 33005KT M02/M10 A3035 RMK A01 T10221097  RH  056%=      5-min Rain = 0
KAM1 011414Z 32004KT M02/M10 A3035 RMK A01 T10221097  RH  056%=      5-min Rain = 0
KAM1 011415Z 32004KT M02/M10 A3035 RMK A01 T10211096  RH  057%=      5-min Rain = 0
KAM1 011416Z 32004KT M02/M10 A3035 RMK A01 T10211095  RH  057%=      5-min Rain = 0
KAM1 011417Z 32004KT M02/M10 A3035 RMK A01 T10201096  RH  056%=      5-min Rain = 0
KAM1 011418Z 33004KT M02/M10 A3035 RMK A01 T10201095  RH  056%=      5-min Rain = 0
KAM1 011419Z 32004KT M02/M10 A3035 RMK A01 T10191095  RH  056%=      5-min Rain = 0
KAM1 011420Z 32004KT M02/M10 A3035 RMK A01 T10191095  RH  056%=      5-min Rain = 0
KAM1 011421Z 32004KT M02/M10 A3035 RMK A01 T10181095  RH  056%=      5-min Rain = 0
KAM1 011422Z 32005KT M02/M10 A3035 RMK A01 T10171095  RH  056%=      5-min Rain = 0
KAM1 011423Z 33005KT M02/M10 A3035 RMK A01 T10161095  RH  055%=      5-min Rain = 0
KAM1 011424Z 32006KT M02/M09 A3035 RMK A01 T10161094  RH  055%=      5-min Rain = 0
KAM1 011425Z 33005KT M02/M10 A3035 RMK A01 T10151095  RH  054%=      5-min Rain = 0
KAM1 011426Z 32006KT M01/M09 A3036 RMK A01 T10141094  RH  055%=      5-min Rain = 0
KAM1 011427Z 33005KT M01/M09 A3036 RMK A01 T10131093  RH  054%=      5-min Rain = 0
KAM1 011428Z 32006KT M01/M09 A3036 RMK A01 T10121092  RH  054%=      5-min Rain = 0
KAM1 011429Z 32007KT M01/M09 A3036 RMK A01 T10111093  RH  054%=      5-min Rain = 0
KAM1 011430Z 32008KT M01/M09 A3036 RMK A01 T10101093  RH  053%=      5-min Rain = 0
KAM1 011431Z 33008KT M01/M09 A3036 RMK A01 T10091094  RH  053%=      5-min Rain = 0
KAM1 011432Z 33008KT M01/M10 A3036 RMK A01 T10091095  RH  052%=      5-min Rain = 0
KAM1 011433Z 33007KT M01/M09 A3036 RMK A01 T10081094  RH  052%=      5-min Rain = 0
KAM1 011434Z 33007KT M01/M09 A3036 RMK A01 T10081094  RH  052%=      5-min Rain = 0
KAM1 011435Z 32008KT M01/M09 A3036 RMK A01 T10071093  RH  052%=      5-min Rain = 0
KAM1 011436Z 32008KT M01/M09 A3036 RMK A01 T10061093  RH  052%=      5-min Rain = 0
KAM1 011437Z 32008KT M01/M09 A3036 RMK A01 T10061094  RH  051%=      5-min Rain = 0
KAM1 011438Z 33008KT M01/M09 A3036 RMK A01 T10061094  RH  051%=      5-min Rain = 0
KAM1 011439Z 33008KT M01/M09 A3036 RMK A01 T10061094  RH  051%=      5-min Rain = 0
KAM1 011440Z 33008KT M01/M09 A3036 RMK A01 T10061094  RH  051%=      5-min Rain = 0
KAM1 011441Z 33007KT M01/M09 A3036 RMK A01 T10051093  RH  052%=      5-min Rain = 0
KAM1 011442Z 33008KT M00/M09 A3036 RMK A01 T10031091  RH  051%=      5-min Rain = 0
KAM1 011443Z 33008KT M00/M09 A3036 RMK A01 T10031092  RH  051%=      5-min Rain = 0
KAM1 011444Z 33007KT M00/M09 A3036 RMK A01 T10031093  RH  051%=      5-min Rain = 0
KAM1 011445Z 33006KT M00/M09 A3036 RMK A01 T10011090  RH  051%=      5-min Rain = 0
KAM1 011446Z 34006KT 00/09 A3037 RMK A01 T00000-90  RH  051%=      5-min Rain = 0
KAM1 011447Z 34006KT 00/M09 A3037 RMK A01 T00031088  RH  050%=      5-min Rain = 0
KAM1 011448Z 33006KT 00/M09 A3037 RMK A01 T00031091  RH  049%=      5-min Rain = 0
KAM1 011449Z 33006KT 00/M09 A3037 RMK A01 T00021091  RH  049%=      5-min Rain = 0
KAM1 011450Z 34006KT 00/M09 A3037 RMK A01 T00021092  RH  049%=      5-min Rain = 0
KAM1 011451Z 33004KT 00/M09 A3037 RMK A01 T00031091  RH  049%=      5-min Rain = 0
KAM1 011452Z 33006KT 00/M09 A3037 RMK A01 T00041090  RH  049%=      5-min Rain = 0
KAM1 011453Z 33006KT 00/M09 A3037 RMK A01 T00041091  RH  049%=      5-min Rain = 0
KAM1 011454Z 34004KT 01/M09 A3037 RMK A01 T00051092  RH  048%=      5-min Rain = 0
KAM1 011455Z 33006KT 01/M09 A3037 RMK A01 T00061090  RH  049%=      5-min Rain = 0
KAM1 011456Z 34005KT 01/M09 A3037 RMK A01 T00071090  RH  048%=      5-min Rain = 0
KAM1 011457Z 34005KT 01/M09 A3037 RMK A01 T00081090  RH  048%=      5-min Rain = 0
KAM1 011458Z 31006KT 01/M09 A3037 RMK A01 T00081090  RH  048%=      5-min Rain = 0
KAM1 011459Z 30005KT 01/M09 A3037 RMK A01 T00081091  RH  047%=      5-min Rain = 0
KAM1 011500Z 32006KT 01/M09 A3037 RMK A01 T00081090  RH  048%=      5-min Rain = 0
KAM1 011501Z 33006KT 01/M09 A3037 RMK A01 T00081091  RH  048%=      5-min Rain = 0
KAM1 011502Z 32005KT 01/M09 A3037 RMK A01 T00081091  RH  047%=      5-min Rain = 0
KAM1 011503Z 31006KT 01/M09 A3037 RMK A01 T00081092  RH  047%=      5-min Rain = 0
KAM1 011504Z 31006KT 01/M09 A3037 RMK A01 T00081092  RH  047%=      5-min Rain = 0
KAM1 011505Z 32006KT 01/M09 A3037 RMK A01 T00071092  RH  048%=      5-min Rain = 0
KAM1 011506Z 32006KT 01/M09 A3037 RMK A01 T00091091  RH  047%=      5-min Rain = 0
KAM1 011507Z 33006KT 01/M09 A3037 RMK A01 T00091091  RH  047%=      5-min Rain = 0
KAM1 011508Z 33006KT 01/M09 A3037 RMK A01 T00101090  RH  047%=      5-min Rain = 0
KAM1 011509Z 33006KT 01/M09 A3037 RMK A01 T00111091  RH  047%=      5-min Rain = 0
KAM1 011510Z 32006KT 01/M09 A3037 RMK A01 T00111090  RH  047%=      5-min Rain = 0
KAM1 011511Z 32007KT 01/M09 A3037 RMK A01 T00121089  RH  047%=      5-min Rain = 0
KAM1 011512Z 33007KT 01/M09 A3037 RMK A01 T00121090  RH  047%=      5-min Rain = 0
KAM1 011513Z 33007KT 01/M09 A3037 RMK A01 T00111090  RH  047%=      5-min Rain = 0
KAM1 011514Z 33008KT 01/M09 A3037 RMK A01 T00121089  RH  047%=      5-min Rain = 0
KAM1 011515Z 34008KT 01/M09 A3037 RMK A01 T00121091  RH  046%=      5-min Rain = 0
KAM1 011516Z 34008KT 01/M09 A3037 RMK A01 T00111092  RH  046%=      5-min Rain = 0
KAM1 011517Z 33007KT 01/M09 A3037 RMK A01 T00121090  RH  047%=      5-min Rain = 0
KAM1 011518Z 32007KT 01/M09 A3037 RMK A01 T00141089  RH  046%=      5-min Rain = 0
KAM1 011519Z 33007KT 01/M09 A3037 RMK A01 T00141088  RH  046%=      5-min Rain = 0
KAM1 011520Z 33007KT 02/M09 A3037 RMK A01 T00161086  RH  046%=      5-min Rain = 0
KAM1 011521Z 34007KT 02/M09 A3037 RMK A01 T00171088  RH  046%=      5-min Rain = 0
KAM1 011522Z 32008KT 02/M09 A3038 RMK A01 T00171089  RH  045%=      5-min Rain = 0
KAM1 011523Z 33007KT 02/M09 A3038 RMK A01 T00181087  RH  046%=      5-min Rain = 0
KAM1 011524Z 34008KT 02/M09 A3038 RMK A01 T00191087  RH  045%=      5-min Rain = 0
KAM1 011525Z 33006KT 02/M09 A3038 RMK A01 T00191087  RH  045%=      5-min Rain = 0
KAM1 011526Z 33006KT 02/M08 A3038 RMK A01 T00221084  RH  045%=      5-min Rain = 0
KAM1 011527Z 33007KT 02/M08 A3038 RMK A01 T00241084  RH  045%=      5-min Rain = 0
KAM1 011528Z 33007KT 03/M09 A3038 RMK A01 T00251085  RH  044%=      5-min Rain = 0
KAM1 011529Z 34007KT 03/M09 A3038 RMK A01 T00251086  RH  044%=      5-min Rain = 0
KAM1 011530Z 33007KT 02/M09 A3038 RMK A01 T00241087  RH  044%=      5-min Rain = 0
KAM1 011531Z 33008KT 02/M09 A3038 RMK A01 T00241088  RH  043%=      5-min Rain = 0
KAM1 011532Z 33008KT 02/M09 A3038 RMK A01 T00221089  RH  044%=      5-min Rain = 0
KAM1 011533Z 33008KT 02/M09 A3038 RMK A01 T00221088  RH  044%=      5-min Rain = 0
KAM1 011534Z 33006KT 02/M09 A3038 RMK A01 T00221088  RH  044%=      5-min Rain = 0
KAM1 011535Z 33008KT 02/M09 A3038 RMK A01 T00241086  RH  044%=      5-min Rain = 0
KAM1 011536Z 33007KT 02/M09 A3038 RMK A01 T00241088  RH  043%=      5-min Rain = 0
KAM1 011537Z 34007KT 02/M09 A3038 RMK A01 T00241088  RH  043%=      5-min Rain = 0
KAM1 011538Z 33005KT 03/M09 A3038 RMK A01 T00251087  RH  043%=      5-min Rain = 0
KAM1 011539Z 33007KT 03/M09 A3038 RMK A01 T00271085  RH  043%=      5-min Rain = 0
KAM1 011540Z 33007KT 03/M09 A3038 RMK A01 T00271086  RH  043%=      5-min Rain = 0
KAM1 011541Z 34007KT 03/M09 A3038 RMK A01 T00281085  RH  043%=      5-min Rain = 0
KAM1 011542Z 34008KT 03/M09 A3038 RMK A01 T00281086  RH  043%=      5-min Rain = 0
KAM1 011543Z 33007KT 03/M09 A3038 RMK A01 T00271087  RH  043%=      5-min Rain = 0
KAM1 011544Z 33007KT 03/M09 A3038 RMK A01 T00271087  RH  043%=      5-min Rain = 0
KAM1 011545Z 34007KT 03/M09 A3038 RMK A01 T00281085  RH  043%=      5-min Rain = 0
KAM1 011546Z 33008KT 03/M09 A3038 RMK A01 T00281087  RH  042%=      5-min Rain = 0
KAM1 011547Z 34008KT 03/M09 A3038 RMK A01 T00271089  RH  042%=      5-min Rain = 0
KAM1 011548Z 34007KT 03/M09 A3038 RMK A01 T00261091  RH  042%=      5-min Rain = 0
KAM1 011549Z 34009KT 03/M09 A3038 RMK A01 T00251090  RH  042%=      5-min Rain = 0
KAM1 011550Z 33008KT 03/M09 A3038 RMK A01 T00251090  RH  042%=      5-min Rain = 0
KAM1 011551Z 34008KT 03/M09 A3038 RMK A01 T00261089  RH  042%=      5-min Rain = 0
KAM1 011552Z 35008KT 03/M09 A3038 RMK A01 T00281088  RH  042%=      5-min Rain = 0
KAM1 011553Z 34008KT 03/M09 A3038 RMK A01 T00291089  RH  042%=      5-min Rain = 0
KAM1 011554Z 34009KT 03/M09 A3038 RMK A01 T00281090  RH  042%=      5-min Rain = 0
KAM1 011555Z 34009KT 03/M09 A3038 RMK A01 T00271091  RH  041%=      5-min Rain = 0
KAM1 011556Z 34008KT 03/M09 A3038 RMK A01 T00271092  RH  041%=      5-min Rain = 0
KAM1 011557Z 35008KT 03/M09 A3038 RMK A01 T00271090  RH  042%=      5-min Rain = 0
KAM1 011558Z 35008KT 03/M09 A3039 RMK A01 T00271090  RH  042%=      5-min Rain = 0
KAM1 011559Z 34007KT 03/M09 A3039 RMK A01 T00271089  RH  042%=      5-min Rain = 0
KAM1 011600Z 34009KT 03/M09 A3039 RMK A01 T00291088  RH  042%=      5-min Rain = 0
KAM1 011601Z 35009KT 03/M09 A3039 RMK A01 T00291090  RH  041%=      5-min Rain = 0
KAM1 011602Z 34008KT 03/M09 A3039 RMK A01 T00281089  RH  042%=      5-min Rain = 0
KAM1 011603Z 34008KT 03/M09 A3039 RMK A01 T00301087  RH  042%=      5-min Rain = 0
KAM1 011604Z 35008KT 03/M09 A3039 RMK A01 T00301089  RH  041%=      5-min Rain = 0
KAM1 011605Z 34009KT 03/M09 A3039 RMK A01 T00301088  RH  042%=      5-min Rain = 0
KAM1 011606Z 34008KT 03/M09 A3039 RMK A01 T00311089  RH  041%=      5-min Rain = 0
KAM1 011607Z 34007KT 03/M09 A3039 RMK A01 T00311089  RH  041%=      5-min Rain = 0
KAM1 011608Z 33008KT 03/M09 A3039 RMK A01 T00331088  RH  041%=      5-min Rain = 0
KAM1 011609Z 34008KT 03/M09 A3039 RMK A01 T00331088  RH  041%=      5-min Rain = 0
KAM1 011610Z 34008KT 03/M09 A3039 RMK A01 T00321090  RH  040%=      5-min Rain = 0
KAM1 011611Z 34009KT 03/M09 A3039 RMK A01 T00301091  RH  040%=      5-min Rain = 0
KAM1 011612Z 34008KT 03/M09 A3039 RMK A01 T00301090  RH  041%=      5-min Rain = 0
KAM1 011613Z 34008KT 03/M09 A3039 RMK A01 T00311088  RH  041%=      5-min Rain = 0
KAM1 011614Z 35008KT 03/M09 A3039 RMK A01 T00321088  RH  041%=      5-min Rain = 0
KAM1 011615Z 36006KT 03/M09 A3039 RMK A01 T00321088  RH  041%=      5-min Rain = 0
KAM1 011616Z 35008KT 04/M09 A3039 RMK A01 T00351085  RH  041%=      5-min Rain = 0
KAM1 011617Z 35008KT 04/M09 A3039 RMK A01 T00351087  RH  040%=      5-min Rain = 0
KAM1 011618Z 35008KT 03/M09 A3039 RMK A01 T00331089  RH  040%=      5-min Rain = 0
KAM1 011619Z 35007KT 03/M09 A3039 RMK A01 T00311089  RH  041%=      5-min Rain = 0
KAM1 011620Z 34008KT 03/M09 A3039 RMK A01 T00321089  RH  041%=      5-min Rain = 0
KAM1 011621Z 35007KT 03/M09 A3039 RMK A01 T00321091  RH  040%=      5-min Rain = 0
KAM1 011622Z 34008KT 03/M09 A3039 RMK A01 T00341088  RH  040%=      5-min Rain = 0
KAM1 011623Z 35008KT 04/M09 A3039 RMK A01 T00361086  RH  040%=      5-min Rain = 0
KAM1 011624Z 35007KT 04/M09 A3039 RMK A01 T00371089  RH  039%=      5-min Rain = 0
KAM1 011625Z 36009KT 04/M09 A3039 RMK A01 T00371087  RH  040%=      5-min Rain = 0
KAM1 011626Z 35007KT 04/M09 A3039 RMK A01 T00371088  RH  040%=      5-min Rain = 0
KAM1 011627Z 35008KT 04/M09 A3039 RMK A01 T00371085  RH  040%=      5-min Rain = 0
KAM1 011628Z 35007KT 04/M09 A3039 RMK A01 T00391086  RH  040%=      5-min Rain = 0
KAM1 011629Z 34006KT 04/M09 A3039 RMK A01 T00371087  RH  040%=      5-min Rain = 0
KAM1 011630Z 35007KT 04/M09 A3039 RMK A01 T00371085  RH  040%=      5-min Rain = 0
KAM1 011631Z 34006KT 04/M09 A3039 RMK A01 T00391087  RH  039%=      5-min Rain = 0
KAM1 011632Z 34007KT 04/M09 A3039 RMK A01 T00391086  RH  040%=      5-min Rain = 0
KAM1 011633Z 34007KT 04/M09 A3039 RMK A01 T00391086  RH  040%=      5-min Rain = 0
KAM1 011634Z 01009KT 04/M09 A3039 RMK A01 T00401085  RH  040%=      5-min Rain = 0
KAM1 011635Z 36008KT 04/M09 A3039 RMK A01 T00431086  RH  038%=      5-min Rain = 0
KAM1 011636Z 35007KT 04/M09 A3039 RMK A01 T00431090  RH  037%=      5-min Rain = 0
KAM1 011637Z 34009KT 04/M09 A3039 RMK A01 T00431089  RH  038%=      5-min Rain = 0
KAM1 011638Z 01010KT 04/M09 A3039 RMK A01 T00441090  RH  037%=      5-min Rain = 0
KAM1 011639Z 00008KT 04/M09 A304 RMK A01 T00441092  RH  037%=      5-min Rain = 0
KAM1 011640Z 36010KT 04/M09 A304 RMK A01 T00421093  RH  037%=      5-min Rain = 0
KAM1 011641Z 36008KT 04/M10 A304 RMK A01 T00421095  RH  036%=      5-min Rain = 0
KAM1 011642Z 00008KT 04/M09 A304 RMK A01 T00421094  RH  036%=      5-min Rain = 0
KAM1 011643Z 35008KT 04/M09 A304 RMK A01 T00441090  RH  037%=      5-min Rain = 0
KAM1 011644Z 00009KT 05/M09 A304 RMK A01 T00471087  RH  037%=      5-min Rain = 0
KAM1 011645Z 00008KT 05/M09 A304 RMK A01 T00491092  RH  035%=      5-min Rain = 0
KAM1 011646Z 00007KT 05/M09 A304 RMK A01 T00471093  RH  035%=      5-min Rain = 0
KAM1 011647Z 35008KT 05/M09 A304 RMK A01 T00481094  RH  035%=      5-min Rain = 0
KAM1 011648Z 36007KT 05/M09 A304 RMK A01 T00481094  RH  035%=      5-min Rain = 0
KAM1 011649Z 34007KT 05/M09 A304 RMK A01 T00501093  RH  035%=      5-min Rain = 0
KAM1 011650Z 36008KT 05/M09 A304 RMK A01 T00501094  RH  034%=      5-min Rain = 0
KAM1 011651Z 35008KT 05/M10 A304 RMK A01 T00511095  RH  034%=      5-min Rain = 0
KAM1 011652Z 35008KT 05/M10 A304 RMK A01 T00501097  RH  034%=      5-min Rain = 0
KAM1 011653Z 36007KT 05/M10 A304 RMK A01 T00521096  RH  034%=      5-min Rain = 0
KAM1 011654Z 00008KT 05/M10 A304 RMK A01 T00531096  RH  033%=      5-min Rain = 0
KAM1 011655Z 01008KT 05/M10 A304 RMK A01 T00531100  RH  032%=      5-min Rain = 0
KAM1 011656Z 02007KT 05/M10 A304 RMK A01 T00501102  RH  032%=      5-min Rain = 0
KAM1 011657Z 01007KT 05/M10 A304 RMK A01 T00501099  RH  033%=      5-min Rain = 0
KAM1 011658Z 01007KT 05/M10 A304 RMK A01 T00531097  RH  033%=      5-min Rain = 0
KAM1 011659Z 01009KT 06/M10 A304 RMK A01 T00561099  RH  032%=      5-min Rain = 0
KAM1 011700Z 02007KT 05/M10 A304 RMK A01 T00541104  RH  031%=      5-min Rain = 0
KAM1 011701Z 35008KT 05/M10 A304 RMK A01 T00521103  RH  032%=      5-min Rain = 0
KAM1 011702Z 01009KT 05/M10 A304 RMK A01 T00511101  RH  032%=      5-min Rain = 0
KAM1 011703Z 02008KT 05/M11 A304 RMK A01 T00531105  RH  031%=      5-min Rain = 0
KAM1 011704Z 02007KT 05/M11 A304 RMK A01 T00531107  RH  030%=      5-min Rain = 0
KAM1 011705Z 00005KT 05/M10 A304 RMK A01 T00531104  RH  031%=      5-min Rain = 0
KAM1 011706Z 00007KT 06/M10 A304 RMK A01 T00561097  RH  032%=      5-min Rain = 0
KAM1 011707Z 03006KT 06/M10 A304 RMK A01 T00571099  RH  032%=      5-min Rain = 0
KAM1 011708Z 01007KT 06/M10 A304 RMK A01 T00561104  RH  031%=      5-min Rain = 0
KAM1 011709Z 01007KT 06/M11 A304 RMK A01 T00551105  RH  030%=      5-min Rain = 0
KAM1 011710Z 01007KT 06/M10 A304 RMK A01 T00571104  RH  030%=      5-min Rain = 0
KAM1 011711Z 35005KT 06/M11 A304 RMK A01 T00551105  RH  031%=      5-min Rain = 0
KAM1 011712Z 01007KT 06/M10 A304 RMK A01 T00551101  RH  031%=      5-min Rain = 0
KAM1 011713Z 01006KT 06/M10 A304 RMK A01 T00561101  RH  031%=      5-min Rain = 0
KAM1 011714Z 35005KT 06/M10 A304 RMK A01 T00551102  RH  031%=      5-min Rain = 0
KAM1 011715Z 01007KT 06/M10 A304 RMK A01 T00571100  RH  031%=      5-min Rain = 0
KAM1 011716Z 01008KT 06/M10 A304 RMK A01 T00591100  RH  031%=      5-min Rain = 0
KAM1 011717Z 03005KT 06/M10 A304 RMK A01 T00591100  RH  031%=      5-min Rain = 0
KAM1 011718Z 01007KT 06/M10 A304 RMK A01 T00581101  RH  031%=      5-min Rain = 0
KAM1 011719Z 34008KT 06/M10 A304 RMK A01 T00581101  RH  031%=      5-min Rain = 0
KAM1 011720Z 34010KT 06/M10 A304 RMK A01 T00611099  RH  031%=      5-min Rain = 0
KAM1 011721Z 35007KT 06/M11 A304 RMK A01 T00591105  RH  030%=      5-min Rain = 0
KAM1 011722Z 35009KT 06/M11 A304 RMK A01 T00561105  RH  030%=      5-min Rain = 0
KAM1 011723Z 35009KT 06/M10 A304 RMK A01 T00591099  RH  031%=      5-min Rain = 0
KAM1 011724Z 35008KT 06/M10 A304 RMK A01 T00601101  RH  030%=      5-min Rain = 0
KAM1 011725Z 36009KT 06/M10 A304 RMK A01 T00601101  RH  031%=      5-min Rain = 0
KAM1 011726Z 35007KT 06/M10 A304 RMK A01 T00621101  RH  030%=      5-min Rain = 0
KAM1 011727Z 33006KT 06/M10 A304 RMK A01 T00611104  RH  029%=      5-min Rain = 0
KAM1 011728Z 34007KT 06/M10 A304 RMK A01 T00611104  RH  029%=      5-min Rain = 0
KAM1 011729Z 34009KT 07/M10 A304 RMK A01 T00651100  RH  030%=      5-min Rain = 0
KAM1 011730Z 35008KT 07/M10 A304 RMK A01 T00681101  RH  029%=      5-min Rain = 0
KAM1 011731Z 36010KT 07/M10 A3041 RMK A01 T00681102  RH  029%=      5-min Rain = 0
KAM1 011732Z 35009KT 07/M10 A3041 RMK A01 T00681101  RH  029%=      5-min Rain = 0
KAM1 011733Z 34008KT 07/M10 A3041 RMK A01 T00661103  RH  029%=      5-min Rain = 0
KAM1 011734Z 34006KT 06/M11 A3041 RMK A01 T00631105  RH  029%=      5-min Rain = 0
KAM1 011735Z 35007KT 06/M11 A3041 RMK A01 T00631105  RH  029%=      5-min Rain = 0
KAM1 011736Z 36009KT 06/M11 A3041 RMK A01 T00641107  RH  028%=      5-min Rain = 0
KAM1 011737Z 00006KT 07/M11 A3041 RMK A01 T00661105  RH  028%=      5-min Rain = 0
KAM1 011738Z 36005KT 07/M11 A3041 RMK A01 T00661105  RH  028%=      5-min Rain = 0
KAM1 011739Z 35008KT 07/M10 A3041 RMK A01 T00671104  RH  028%=      5-min Rain = 0
KAM1 011740Z 35007KT 07/M11 A3041 RMK A01 T00661107  RH  028%=      5-min Rain = 0
KAM1 011741Z 34007KT 07/M10 A3041 RMK A01 T00651104  RH  029%=      5-min Rain = 0
KAM1 011742Z 35011KT 07/M10 A3041 RMK A01 T00661103  RH  029%=      5-min Rain = 0
KAM1 011743Z 35009KT 07/M10 A3041 RMK A01 T00701101  RH  028%=      5-min Rain = 0
KAM1 011744Z 01010KT 07/M10 A3041 RMK A01 T00721102  RH  028%=      5-min Rain = 0
KAM1 011745Z 02007KT 07/M10 A3041 RMK A01 T00731102  RH  028%=      5-min Rain = 0
KAM1 011746Z 00006KT 07/M10 A3041 RMK A01 T00701104  RH  028%=      5-min Rain = 0
KAM1 011747Z 35009KT 07/M11 A3041 RMK A01 T00691106  RH  028%=      5-min Rain = 0
KAM1 011748Z 36007KT 07/M11 A3041 RMK A01 T00691106  RH  028%=      5-min Rain = 0
KAM1 011749Z 35006KT 07/M11 A3041 RMK A01 T00681105  RH  028%=      5-min Rain = 0
KAM1 011750Z 34008KT 07/M11 A3041 RMK A01 T00691106  RH  028%=      5-min Rain = 0
KAM1 011751Z 34005KT 07/M11 A3041 RMK A01 T00671107  RH  028%=      5-min Rain = 0
KAM1 011752Z 01007KT 07/M10 A3041 RMK A01 T00661104  RH  029%=      5-min Rain = 0
KAM1 011753Z 02004KT 07/M10 A3041 RMK A01 T00671103  RH  029%=      5-min Rain = 0
KAM1 011754Z 01005KT 07/M10 A3041 RMK A01 T00661103  RH  029%=      5-min Rain = 0
KAM1 011755Z 34006KT 07/M10 A3041 RMK A01 T00661101  RH  029%=      5-min Rain = 0
KAM1 011756Z 01010KT 07/M10 A3041 RMK A01 T00691100  RH  029%=      5-min Rain = 0
KAM1 011757Z 01009KT 07/M10 A3041 RMK A01 T00701104  RH  028%=      5-min Rain = 0
KAM1 011758Z 02007KT 07/M10 A3041 RMK A01 T00701104  RH  028%=      5-min Rain = 0
KAM1 011759Z 03008KT 07/M10 A3041 RMK A01 T00711102  RH  028%=      5-min Rain = 0
KAM1 011800Z 02006KT 07/M11 A3041 RMK A01 T00701106  RH  027%=      5-min Rain = 0
KAM1 011801Z 01007KT 07/M10 A3041 RMK A01 T00691103  RH  028%=      5-min Rain = 0
KAM1 011802Z 35006KT 07/M10 A3041 RMK A01 T00711100  RH  028%=      5-min Rain = 0
KAM1 011803Z 35005KT 07/M10 A3041 RMK A01 T00701104  RH  028%=      5-min Rain = 0
KAM1 011804Z 33008KT 07/M11 A3041 RMK A01 T00671105  RH  028%=      5-min Rain = 0
KAM1 011805Z 36008KT 07/M10 A3041 RMK A01 T00681103  RH  028%=      5-min Rain = 0
KAM1 011806Z 34008KT 07/M10 A3041 RMK A01 T00711101  RH  028%=      5-min Rain = 0
KAM1 011807Z 01008KT 07/M10 A3041 RMK A01 T00741100  RH  028%=      5-min Rain = 0
KAM1 011808Z 01006KT 07/M10 A3041 RMK A01 T00741102  RH  027%=      5-min Rain = 0
KAM1 011809Z 02009KT 07/M10 A3041 RMK A01 T00741101  RH  028%=      5-min Rain = 0
KAM1 011810Z 04007KT 07/M11 A3041 RMK A01 T00731107  RH  027%=      5-min Rain = 0
KAM1 011811Z 36007KT 07/M11 A3041 RMK A01 T00721106  RH  027%=      5-min Rain = 0
KAM1 011812Z 00013KT 08/M10 A3041 RMK A01 T00761100  RH  027%=      5-min Rain = 0
KAM1 011813Z 00008G13KT 08/M11 A3041 RMK A01 T00771107  RH  026%=      5-min Rain = 0
KAM1 011814Z 01006KT 07/M11 A3041 RMK A01 T00731111  RH  026%=      5-min Rain = 0
KAM1 011815Z 03006KT 07/M11 A3041 RMK A01 T00711108  RH  027%=      5-min Rain = 0
KAM1 011816Z 36008KT 07/M10 A3041 RMK A01 T00711104  RH  027%=      5-min Rain = 0
KAM1 011817Z 34008KT 07/M11 A3041 RMK A01 T00721105  RH  027%=      5-min Rain = 0
KAM1 011818Z 01014KT 07/M11 A3041 RMK A01 T00721107  RH  027%=      5-min Rain = 0
KAM1 011819Z 01009KT 07/M11 A3041 RMK A01 T00731108  RH  026%=      5-min Rain = 0
KAM1 011820Z 01009KT 07/M11 A3041 RMK A01 T00731109  RH  026%=      5-min Rain = 0
KAM1 011821Z 01011G16KT 08/M11 A3041 RMK A01 T00751106  RH  026%=      5-min Rain = 0
KAM1 011822Z 01012KT 08/M11 A3041 RMK A01 T00781106  RH  026%=      5-min Rain = 0
KAM1 011823Z 02011KT 08/M11 A3041 RMK A01 T00791111  RH  025%=      5-min Rain = 0
KAM1 011824Z 03009KT 08/M12 A3041 RMK A01 T00771115  RH  024%=      5-min Rain = 0
KAM1 011825Z 03009KT 08/M12 A3041 RMK A01 T00761115  RH  024%=      5-min Rain = 0
KAM1 011826Z 02008KT 08/M11 A304 RMK A01 T00781111  RH  025%=      5-min Rain = 0
KAM1 011827Z 01007KT 08/M11 A304 RMK A01 T00791110  RH  025%=      5-min Rain = 0
KAM1 011828Z 35010KT 08/M11 A304 RMK A01 T00791105  RH  026%=      5-min Rain = 0
KAM1 011829Z 02010KT 08/M10 A304 RMK A01 T00841099  RH  026%=      5-min Rain = 0
KAM1 011830Z 36009KT 09/M10 A304 RMK A01 T00861101  RH  025%=      5-min Rain = 0
KAM1 011831Z 35011KT 08/M11 A304 RMK A01 T00831105  RH  025%=      5-min Rain = 0
KAM1 011832Z 35007KT 08/M11 A304 RMK A01 T00821107  RH  025%=      5-min Rain = 0
KAM1 011833Z 35009KT 08/M11 A304 RMK A01 T00821107  RH  025%=      5-min Rain = 0
KAM1 011834Z 01012KT 08/M11 A304 RMK A01 T00831107  RH  025%=      5-min Rain = 0
KAM1 011835Z 00009KT 08/M11 A304 RMK A01 T00831109  RH  024%=      5-min Rain = 0
KAM1 011836Z 03013KT 08/M11 A304 RMK A01 T00821111  RH  024%=      5-min Rain = 0
KAM1 011837Z 04011KT 08/M12 A304 RMK A01 T00831115  RH  023%=      5-min Rain = 0
KAM1 011838Z 02012KT 09/M12 A304 RMK A01 T00851116  RH  023%=      5-min Rain = 0
KAM1 011839Z 04011KT 09/M11 A304 RMK A01 T00871114  RH  023%=      5-min Rain = 0
KAM1 011840Z 05011KT 09/M12 A304 RMK A01 T00891116  RH  022%=      5-min Rain = 0
KAM1 011841Z 05010G15KT 09/M12 A304 RMK A01 T00871117  RH  022%=      5-min Rain = 0
KAM1 011842Z 02012KT 09/M12 A304 RMK A01 T00871118  RH  022%=      5-min Rain = 0
KAM1 011843Z 02013KT 09/M12 A304 RMK A01 T00881120  RH  022%=      5-min Rain = 0
KAM1 011844Z 03006KT 09/M12 A304 RMK A01 T00871120  RH  022%=      5-min Rain = 0
KAM1 011845Z 04004KT 09/M12 A304 RMK A01 T00851124  RH  021%=      5-min Rain = 0
KAM1 011846Z 03006KT 08/M12 A304 RMK A01 T00821124  RH  022%=      5-min Rain = 0
KAM1 011847Z 02007KT 08/M12 A304 RMK A01 T00821121  RH  022%=      5-min Rain = 0
KAM1 011848Z 01010KT 09/M12 A304 RMK A01 T00851117  RH  023%=      5-min Rain = 0
KAM1 011849Z 01013KT 09/M12 A304 RMK A01 T00891118  RH  022%=      5-min Rain = 0
KAM1 011850Z 00012KT 09/M12 A304 RMK A01 T00921120  RH  021%=      5-min Rain = 0
KAM1 011851Z 02012KT 09/M12 A304 RMK A01 T00911124  RH  021%=      5-min Rain = 0
KAM1 011852Z 03012KT 09/M13 A304 RMK A01 T00891125  RH  021%=      5-min Rain = 0
KAM1 011853Z 04006KT 09/M13 A304 RMK A01 T00861134  RH  019%=      5-min Rain = 0
KAM1 011854Z 02007KT 08/M14 A304 RMK A01 T00821136  RH  020%=      5-min Rain = 0
KAM1 011855Z 02007KT 08/M13 A304 RMK A01 T00811131  RH  021%=      5-min Rain = 0
KAM1 011856Z 02006KT 08/M13 A304 RMK A01 T00811131  RH  021%=      5-min Rain = 0
KAM1 011857Z 03005KT 08/M13 A304 RMK A01 T00821127  RH  021%=      5-min Rain = 0
KAM1 011858Z 02005KT 08/M13 A304 RMK A01 T00821126  RH  021%=      5-min Rain = 0
KAM1 011859Z 03008KT 08/M13 A304 RMK A01 T00831125  RH  021%=      5-min Rain = 0
KAM1 011900Z 03010G16KT 08/M12 A304 RMK A01 T00841121  RH  022%=      5-min Rain = 0
KAM1 011901Z 02011G17KT 09/M12 A304 RMK A01 T00881122  RH  021%=      5-min Rain = 0
KAM1 011902Z 02009KT 09/M13 A304 RMK A01 T00871126  RH  021%=      5-min Rain = 0
KAM1 011903Z 03011KT 09/M13 A304 RMK A01 T00861125  RH  021%=      5-min Rain = 0
KAM1 011904Z 03008KT 09/M13 A304 RMK A01 T00871125  RH  021%=      5-min Rain = 0
KAM1 011905Z 02006KT 09/M13 A304 RMK A01 T00871128  RH  021%=      5-min Rain = 0
KAM1 011906Z 35007KT 08/M13 A3039 RMK A01 T00841131  RH  020%=      5-min Rain = 0
KAM1 011907Z 02006G11KT 08/M13 A3039 RMK A01 T00821133  RH  020%=      5-min Rain = 0
KAM1 011908Z 04008KT 08/M13 A3039 RMK A01 T00821125  RH  022%=      5-min Rain = 0
KAM1 011909Z 01009KT 09/M11 A3039 RMK A01 T00911114  RH  022%=      5-min Rain = 0
KAM1 011910Z 01011KT 10/M12 A3039 RMK A01 T00971119  RH  021%=      5-min Rain = 0
KAM1 011911Z 36014KT 10/M13 A3039 RMK A01 T00951125  RH  020%=      5-min Rain = 0
KAM1 011912Z 01010KT 09/M13 A3039 RMK A01 T00931131  RH  019%=      5-min Rain = 0
KAM1 011913Z 35008KT 09/M13 A3039 RMK A01 T00901131  RH  019%=      5-min Rain = 0
KAM1 011914Z 01010KT 09/M13 A3039 RMK A01 T00911129  RH  020%=      5-min Rain = 0
KAM1 011915Z 03012KT 09/M13 A3039 RMK A01 T00911129  RH  020%=      5-min Rain = 0
KAM1 011916Z 01010KT 09/M13 A3039 RMK A01 T00871130  RH  020%=      5-min Rain = 0
KAM1 011917Z 36006KT 08/M13 A3039 RMK A01 T00841131  RH  020%=      5-min Rain = 0
KAM1 011918Z 35008KT 08/M13 A3039 RMK A01 T00841128  RH  021%=      5-min Rain = 0
KAM1 011919Z 35006KT 09/M13 A3039 RMK A01 T00851129  RH  021%=      5-min Rain = 0
KAM1 011920Z 00007KT 09/M13 A3039 RMK A01 T00851129  RH  021%=      5-min Rain = 0
KAM1 011921Z 35007KT 09/M13 A3039 RMK A01 T00861130  RH  020%=      5-min Rain = 0
KAM1 011922Z 36008KT 09/M13 A3039 RMK A01 T00871129  RH  020%=      5-min Rain = 0
KAM1 011923Z 33009KT 09/M13 A3039 RMK A01 T00871134  RH  019%=      5-min Rain = 0
KAM1 011924Z 34005KT 08/M14 A3038 RMK A01 T00841138  RH  019%=      5-min Rain = 0
KAM1 011925Z 34005KT 08/M14 A3038 RMK A01 T00831138  RH  019%=      5-min Rain = 0
KAM1 011926Z 36008KT 09/M13 A3038 RMK A01 T00851130  RH  020%=      5-min Rain = 0
KAM1 011927Z 02012KT 09/M13 A3038 RMK A01 T00911127  RH  020%=      5-min Rain = 0
KAM1 011928Z 03010KT 09/M14 A3039 RMK A01 T00941138  RH  018%=      5-min Rain = 0
KAM1 011929Z 05009KT 09/M14 A3039 RMK A01 T00931142  RH  018%=      5-min Rain = 0
KAM1 011930Z 04009KT 09/M15 A3039 RMK A01 T00901146  RH  017%=      5-min Rain = 0
KAM1 011931Z 03011KT 09/M14 A3038 RMK A01 T00881140  RH  018%=      5-min Rain = 0
KAM1 011932Z 02010KT 09/M14 A3038 RMK A01 T00881140  RH  018%=      5-min Rain = 0
KAM1 011933Z 00012KT 09/M14 A3038 RMK A01 T00871141  RH  018%=      5-min Rain = 0
KAM1 011934Z 01009KT 09/M14 A3038 RMK A01 T00861144  RH  018%=      5-min Rain = 0
KAM1 011935Z 35009KT 09/M14 A3038 RMK A01 T00851142  RH  018%=      5-min Rain = 0
KAM1 011936Z 35008KT 09/M14 A3038 RMK A01 T00861138  RH  019%=      5-min Rain = 0
KAM1 011937Z 35007KT 09/M14 A3038 RMK A01 T00861135  RH  019%=      5-min Rain = 0
KAM1 011938Z 35005KT 09/M14 A3038 RMK A01 T00861135  RH  019%=      5-min Rain = 0
KAM1 011939Z 30003KT 08/M14 A3038 RMK A01 T00841137  RH  019%=      5-min Rain = 0
KAM1 011940Z 23002KT 08/M14 A3038 RMK A01 T00821139  RH  019%=      5-min Rain = 0
KAM1 011941Z 34002G7KT 08/M13 A3038 RMK A01 T00821132  RH  020%=      5-min Rain = 0
KAM1 011942Z 34007KT 09/M13 A3038 RMK A01 T00851128  RH  021%=      5-min Rain = 0
KAM1 011943Z 33006KT 09/M13 A3038 RMK A01 T00871131  RH  020%=      5-min Rain = 0
KAM1 011944Z 01005KT 09/M13 A3038 RMK A01 T00851133  RH  020%=      5-min Rain = 0
KAM1 011945Z 05009KT 09/M13 A3038 RMK A01 T00861127  RH  021%=      5-min Rain = 0
KAM1 011946Z 06010KT 09/M12 A3038 RMK A01 T00911123  RH  021%=      5-min Rain = 0
KAM1 011947Z 06008KT 09/M13 A3038 RMK A01 T00921127  RH  020%=      5-min Rain = 0
KAM1 011948Z 06005KT 09/M13 A3037 RMK A01 T00901131  RH  019%=      5-min Rain = 0
KAM1 011949Z 04005KT 09/M13 A3038 RMK A01 T00891134  RH  019%=      5-min Rain = 0
KAM1 011950Z 02005KT 09/M14 A3037 RMK A01 T00871137  RH  019%=      5-min Rain = 0
KAM1 011951Z 34008G15KT 09/M14 A3037 RMK A01 T00861136  RH  019%=      5-min Rain = 0
KAM1 011952Z 36011KT 09/M13 A3037 RMK A01 T00901132  RH  019%=      5-min Rain = 0
KAM1 011953Z 34011KT 10/M13 A3037 RMK A01 T00971126  RH  019%=      5-min Rain = 0
KAM1 011954Z 35007KT 10/M14 A3037 RMK A01 T00971135  RH  018%=      5-min Rain = 0
KAM1 011955Z 34010G15KT 10/M13 A3037 RMK A01 T00951134  RH  018%=      5-min Rain = 0
KAM1 011956Z 00011KT 10/M13 A3037 RMK A01 T00961129  RH  019%=      5-min Rain = 0
KAM1 011957Z 35009KT 10/M13 A3037 RMK A01 T00951134  RH  018%=      5-min Rain = 0
KAM1 011958Z 33007KT 09/M14 A3037 RMK A01 T00931136  RH  018%=      5-min Rain = 0
KAM1 011959Z 35007KT 09/M14 A3037 RMK A01 T00931135  RH  019%=      5-min Rain = 0
KAM1 012000Z 04010KT 09/M13 A3037 RMK A01 T00941129  RH  019%=      5-min Rain = 0
KAM1 012001Z 05009KT 10/M13 A3037 RMK A01 T00971132  RH  019%=      5-min Rain = 0
KAM1 012002Z 05008KT 09/M14 A3037 RMK A01 T00941135  RH  018%=      5-min Rain = 0
KAM1 012003Z 07007KT 09/M13 A3037 RMK A01 T00931134  RH  019%=      5-min Rain = 0
KAM1 012004Z 07004KT 09/M14 A3037 RMK A01 T00911138  RH  018%=      5-min Rain = 0
KAM1 012005Z 04001KT 09/M14 A3036 RMK A01 T00891135  RH  019%=      5-min Rain = 0
KAM1 012006Z 08002KT 09/M14 A3036 RMK A01 T00901136  RH  019%=      5-min Rain = 0
KAM1 012007Z 03005KT 09/M14 A3036 RMK A01 T00901135  RH  019%=      5-min Rain = 0
KAM1 012008Z 04005KT 09/M14 A3036 RMK A01 T00901135  RH  019%=      5-min Rain = 0
KAM1 012009Z 06007KT 09/M13 A3036 RMK A01 T00901130  RH  020%=      5-min Rain = 0
KAM1 012010Z 07009KT 09/M13 A3036 RMK A01 T00941126  RH  020%=      5-min Rain = 0
KAM1 012011Z 06008KT 09/M13 A3036 RMK A01 T00941128  RH  019%=      5-min Rain = 0
KAM1 012012Z 06006KT 10/M13 A3036 RMK A01 T00971125  RH  020%=      5-min Rain = 0
KAM1 012013Z 05009KT 10/M13 A3036 RMK A01 T00961128  RH  019%=      5-min Rain = 0
KAM1 012014Z 03012KT 10/M13 A3036 RMK A01 T00971126  RH  019%=      5-min Rain = 0
KAM1 012015Z 05009KT 10/M13 A3036 RMK A01 T00961132  RH  019%=      5-min Rain = 0
KAM1 012016Z 06006KT 09/M13 A3036 RMK A01 T00941133  RH  019%=      5-min Rain = 0
KAM1 012017Z 08008KT 09/M13 A3036 RMK A01 T00931134  RH  019%=      5-min Rain = 0
KAM1 012018Z 07007KT 09/M13 A3036 RMK A01 T00931132  RH  019%=      5-min Rain = 0
KAM1 012019Z 08005KT 09/M13 A3036 RMK A01 T00941133  RH  019%=      5-min Rain = 0
KAM1 012020Z 07007KT 09/M14 A3036 RMK A01 T00931135  RH  019%=      5-min Rain = 0
KAM1 012021Z 07007KT 09/M13 A3036 RMK A01 T00941134  RH  019%=      5-min Rain = 0
KAM1 012022Z 07006KT 09/M14 A3036 RMK A01 T00921139  RH  018%=      5-min Rain = 0
KAM1 012023Z 08006KT 09/M14 A3036 RMK A01 T00911140  RH  018%=      5-min Rain = 0
KAM1 012024Z 09005KT 09/M14 A3036 RMK A01 T00901138  RH  018%=      5-min Rain = 0
KAM1 012025Z 02001KT 09/M14 A3036 RMK A01 T00901137  RH  019%=      5-min Rain = 0
KAM1 012026Z 01005KT 09/M13 A3036 RMK A01 T00931132  RH  019%=      5-min Rain = 0
KAM1 012027Z 35004KT 10/M13 A3036 RMK A01 T00961133  RH  018%=      5-min Rain = 0
KAM1 012028Z 35003KT 10/M14 A3036 RMK A01 T00951138  RH  018%=      5-min Rain = 0
KAM1 012029Z 32003KT 09/M14 A3036 RMK A01 T00941136  RH  018%=      5-min Rain = 0
KAM1 012030Z 33002KT 10/M13 A3036 RMK A01 T00961134  RH  018%=      5-min Rain = 0
KAM1 012031Z 35001KT 10/M13 A3036 RMK A01 T00991130  RH  019%=      5-min Rain = 0
KAM1 012032Z 06001KT 10/M14 A3036 RMK A01 T01001135  RH  018%=      5-min Rain = 0
KAM1 012033Z 07006KT 10/M13 A3036 RMK A01 T01011130  RH  018%=      5-min Rain = 0
KAM1 012034Z 07006KT 10/M13 A3036 RMK A01 T01021133  RH  018%=      5-min Rain = 0
KAM1 012035Z 03007KT 10/M13 A3036 RMK A01 T01011133  RH  018%=      5-min Rain = 0
KAM1 012036Z 01011KT 10/M14 A3036 RMK A01 T01021137  RH  017%=      5-min Rain = 0
KAM1 012037Z 02009KT 10/M14 A3036 RMK A01 T01001140  RH  017%=      5-min Rain = 0
KAM1 012038Z 03006KT 10/M14 A3036 RMK A01 T00991140  RH  017%=      5-min Rain = 0
KAM1 012039Z 05005KT 10/M14 A3036 RMK A01 T00981141  RH  017%=      5-min Rain = 0
KAM1 012040Z 03006KT 10/M14 A3036 RMK A01 T00971138  RH  018%=      5-min Rain = 0
KAM1 012041Z 05004KT 10/M14 A3036 RMK A01 T00971140  RH  017%=      5-min Rain = 0
KAM1 012042Z 04003KT 10/M14 A3036 RMK A01 T00951144  RH  017%=      5-min Rain = 0
KAM1 012043Z 04004KT 09/M14 A3036 RMK A01 T00941144  RH  017%=      5-min Rain = 0
KAM1 012044Z 04004KT 09/M15 A3036 RMK A01 T00941145  RH  017%=      5-min Rain = 0
KAM1 012045Z 04004KT 09/M14 A3036 RMK A01 T00931144  RH  017%=      5-min Rain = 0
KAM1 012046Z 07004KT 09/M14 A3036 RMK A01 T00931144  RH  017%=      5-min Rain = 0
KAM1 012047Z 06004KT 09/M14 A3035 RMK A01 T00921143  RH  017%=      5-min Rain = 0
KAM1 012048Z 06003KT 09/M14 A3035 RMK A01 T00921143  RH  017%=      5-min Rain = 0
KAM1 012049Z 02002KT 09/M14 A3035 RMK A01 T00921143  RH  017%=      5-min Rain = 0
KAM1 012050Z 03001KT 09/M15 A3035 RMK A01 T00921146  RH  017%=      5-min Rain = 0
KAM1 012051Z 06001KT 09/M14 A3035 RMK A01 T00921144  RH  017%=      5-min Rain = 0
KAM1 012052Z 06002KT 09/M14 A3035 RMK A01 T00931142  RH  017%=      5-min Rain = 0
KAM1 012053Z 03002KT 09/M14 A3035 RMK A01 T00941140  RH  018%=      5-min Rain = 0
KAM1 012054Z 30002KT 10/M14 A3035 RMK A01 T00961137  RH  018%=      5-min Rain = 0
KAM1 012055Z 29001KT 10/M14 A3035 RMK A01 T00981139  RH  017%=      5-min Rain = 0
KAM1 012056Z 28006KT 10/M14 A3035 RMK A01 T00991138  RH  017%=      5-min Rain = 0
KAM1 012057Z 32005G12KT 10/M13 A3035 RMK A01 T01011131  RH  018%=      5-min Rain = 0
KAM1 012058Z 35009KT 11/M13 A3035 RMK A01 T01051125  RH  019%=      5-min Rain = 0
KAM1 012059Z 35007KT 11/M13 A3035 RMK A01 T01061131  RH  017%=      5-min Rain = 0
KAM1 012100Z 36007KT 10/M14 A3035 RMK A01 T01011135  RH  018%=      5-min Rain = 0
KAM1 012101Z 33009KT 10/M13 A3035 RMK A01 T01021129  RH  018%=      5-min Rain = 0
KAM1 012102Z 32010KT 10/M13 A3035 RMK A01 T01031132  RH  018%=      5-min Rain = 0
KAM1 012103Z 31005KT 10/M14 A3035 RMK A01 T00991137  RH  017%=      5-min Rain = 0
KAM1 012104Z 30004KT 10/M13 A3035 RMK A01 T00981133  RH  018%=      5-min Rain = 0
KAM1 012105Z 31007KT 10/M13 A3035 RMK A01 T00991131  RH  018%=      5-min Rain = 0
KAM1 012106Z 31007KT 10/M13 A3035 RMK A01 T01001132  RH  018%=      5-min Rain = 0
KAM1 012107Z 32006KT 10/M14 A3035 RMK A01 T00981136  RH  018%=      5-min Rain = 0
KAM1 012108Z 31005KT 10/M14 A3035 RMK A01 T00981136  RH  018%=      5-min Rain = 0
KAM1 012109Z 30003KT 10/M14 A3035 RMK A01 T00971138  RH  018%=      5-min Rain = 0
KAM1 012110Z 28003KT 10/M14 A3035 RMK A01 T00961138  RH  018%=      5-min Rain = 0
KAM1 012111Z 26002KT 10/M14 A3035 RMK A01 T00961137  RH  018%=      5-min Rain = 0
KAM1 012112Z 26003KT 10/M14 A3035 RMK A01 T00971135  RH  018%=      5-min Rain = 0
KAM1 012113Z 30007KT 10/M13 A3035 RMK A01 T01021127  RH  019%=      5-min Rain = 0
KAM1 012114Z 32010KT 11/M13 A3035 RMK A01 T01051130  RH  018%=      5-min Rain = 0
KAM1 012115Z 31006KT 10/M14 A3035 RMK A01 T01011138  RH  017%=      5-min Rain = 0
KAM1 012116Z 35006KT 10/M13 A3035 RMK A01 T00991134  RH  018%=      5-min Rain = 0
KAM1 012117Z 32007KT 10/M13 A3035 RMK A01 T00991133  RH  018%=      5-min Rain = 0
KAM1 012118Z 33005KT 10/M13 A3035 RMK A01 T01001129  RH  019%=      5-min Rain = 0
KAM1 012119Z 34007KT 10/M13 A3035 RMK A01 T01011126  RH  019%=      5-min Rain = 0
KAM1 012120Z 33007KT 10/M13 A3035 RMK A01 T01031127  RH  019%=      5-min Rain = 0
KAM1 012121Z 33005KT 10/M13 A3035 RMK A01 T01021132  RH  018%=      5-min Rain = 0
KAM1 012122Z 29004KT 10/M14 A3035 RMK A01 T01001135  RH  018%=      5-min Rain = 0
KAM1 012123Z 24002KT 10/M14 A3035 RMK A01 T00991137  RH  018%=      5-min Rain = 0
KAM1 012124Z 23001KT 10/M14 A3035 RMK A01 T00991138  RH  017%=      5-min Rain = 0
KAM1 012125Z 31000KT 10/M14 A3035 RMK A01 T01001137  RH  017%=      5-min Rain = 0
KAM1 012126Z 30003KT 10/M14 A3035 RMK A01 T01011135  RH  018%=      5-min Rain = 0
KAM1 012127Z 30005KT 10/M13 A3035 RMK A01 T01031131  RH  018%=      5-min Rain = 0
KAM1 012128Z 34005KT 10/M13 A3035 RMK A01 T01041130  RH  018%=      5-min Rain = 0
KAM1 012129Z 30006KT 11/M13 A3035 RMK A01 T01051128  RH  018%=      5-min Rain = 0
KAM1 012130Z 30006KT 11/M13 A3035 RMK A01 T01071126  RH  018%=      5-min Rain = 0
KAM1 012131Z 28004KT 11/M13 A3035 RMK A01 T01061128  RH  018%=      5-min Rain = 0
KAM1 012132Z 32005KT 11/M13 A3035 RMK A01 T01061129  RH  018%=      5-min Rain = 0
KAM1 012133Z 00005KT 11/M13 A3035 RMK A01 T01051129  RH  018%=      5-min Rain = 0
KAM1 012134Z 01005KT 10/M13 A3035 RMK A01 T01031131  RH  018%=      5-min Rain = 0
KAM1 012135Z 00005KT 10/M13 A3035 RMK A01 T01021131  RH  018%=      5-min Rain = 0
KAM1 012136Z 01005KT 10/M14 A3035 RMK A01 T01011135  RH  018%=      5-min Rain = 0
KAM1 012137Z 02004KT 10/M14 A3035 RMK A01 T00981139  RH  017%=      5-min Rain = 0
KAM1 012138Z 06002KT 10/M14 A3035 RMK A01 T00961137  RH  018%=      5-min Rain = 0
KAM1 012139Z 00002KT 10/M14 A3035 RMK A01 T00961138  RH  018%=      5-min Rain = 0
KAM1 012140Z 35000KT 10/M14 A3035 RMK A01 T00961137  RH  018%=      5-min Rain = 0
KAM1 012141Z 32001KT 10/M14 A3035 RMK A01 T00971137  RH  018%=      5-min Rain = 0
KAM1 012142Z 31002KT 10/M14 A3035 RMK A01 T00971138  RH  018%=      5-min Rain = 0
KAM1 012143Z 29001KT 10/M14 A3035 RMK A01 T00971137  RH  018%=      5-min Rain = 0
KAM1 012144Z 28001KT 10/M14 A3035 RMK A01 T00981135  RH  018%=      5-min Rain = 0
KAM1 012145Z 27001KT 10/M13 A3035 RMK A01 T01011130  RH  018%=      5-min Rain = 0
KAM1 012146Z 26002KT 10/M13 A3035 RMK A01 T01041129  RH  018%=      5-min Rain = 0
KAM1 012147Z 29002KT 11/M13 A3035 RMK A01 T01051133  RH  017%=      5-min Rain = 0
KAM1 012148Z 32003KT 10/M13 A3035 RMK A01 T01041134  RH  017%=      5-min Rain = 0
KAM1 012149Z 00005KT 10/M13 A3035 RMK A01 T01041130  RH  018%=      5-min Rain = 0
KAM1 012150Z 00007KT 10/M13 A3035 RMK A01 T01041130  RH  018%=      5-min Rain = 0
KAM1 012151Z 35009KT 10/M13 A3035 RMK A01 T01041128  RH  018%=      5-min Rain = 0
KAM1 012152Z 34007KT 10/M13 A3034 RMK A01 T01041129  RH  018%=      5-min Rain = 0
KAM1 012153Z 34009KT 10/M13 A3034 RMK A01 T01031130  RH  018%=      5-min Rain = 0
KAM1 012154Z 34009KT 10/M13 A3034 RMK A01 T01021131  RH  018%=      5-min Rain = 0
KAM1 012155Z 33008KT 10/M13 A3034 RMK A01 T01021130  RH  018%=      5-min Rain = 0
KAM1 012156Z 35007KT 10/M13 A3034 RMK A01 T01011131  RH  018%=      5-min Rain = 0
KAM1 012157Z 35007KT 10/M13 A3034 RMK A01 T01011129  RH  018%=      5-min Rain = 0
KAM1 012158Z 36007KT 10/M13 A3034 RMK A01 T01011129  RH  018%=      5-min Rain = 0
KAM1 012159Z 33006KT 10/M13 A3034 RMK A01 T01011130  RH  018%=      5-min Rain = 0
KAM1 012200Z 35004KT 10/M13 A3034 RMK A01 T01001130  RH  018%=      5-min Rain = 0
KAM1 012201Z 34001KT 10/M13 A3034 RMK A01 T00991132  RH  018%=      5-min Rain = 0
KAM1 012202Z 01004KT 10/M13 A3034 RMK A01 T00981131  RH  018%=      5-min Rain = 0
KAM1 012203Z 02005KT 10/M13 A3034 RMK A01 T01001128  RH  019%=      5-min Rain = 0
KAM1 012204Z 00003KT 10/M13 A3034 RMK A01 T01011131  RH  018%=      5-min Rain = 0
KAM1 012205Z 05006KT 10/M13 A3034 RMK A01 T01021129  RH  018%=      5-min Rain = 0
KAM1 012206Z 06006KT 10/M13 A3034 RMK A01 T01031130  RH  018%=      5-min Rain = 0
KAM1 012207Z 07003KT 10/M14 A3034 RMK A01 T01011135  RH  018%=      5-min Rain = 0
KAM1 012208Z 10002KT 10/M13 A3034 RMK A01 T00991133  RH  018%=      5-min Rain = 0
KAM1 012209Z 01003KT 10/M13 A3034 RMK A01 T00991133  RH  018%=      5-min Rain = 0
KAM1 012210Z 01005KT 10/M13 A3034 RMK A01 T01011128  RH  018%=      5-min Rain = 0
KAM1 012211Z 02006KT 10/M13 A3034 RMK A01 T01021132  RH  018%=      5-min Rain = 0
KAM1 012212Z 03005KT 10/M14 A3034 RMK A01 T01011135  RH  017%=      5-min Rain = 0
KAM1 012213Z 03003KT 10/M14 A3034 RMK A01 T01001136  RH  018%=      5-min Rain = 0
KAM1 012214Z 03004KT 10/M13 A3034 RMK A01 T01011131  RH  018%=      5-min Rain = 0
KAM1 012215Z 04003KT 10/M13 A3034 RMK A01 T01021133  RH  018%=      5-min Rain = 0
KAM1 012216Z 04000KT 10/M14 A3034 RMK A01 T01001138  RH  017%=      5-min Rain = 0
KAM1 012217Z 06001KT 10/M14 A3034 RMK A01 T00991138  RH  017%=      5-min Rain = 0
KAM1 012218Z 06005KT 10/M14 A3034 RMK A01 T01001136  RH  018%=      5-min Rain = 0
KAM1 012219Z 09005KT 10/M14 A3034 RMK A01 T00991136  RH  018%=      5-min Rain = 0
KAM1 012220Z 12004KT 10/M13 A3034 RMK A01 T01001134  RH  018%=      5-min Rain = 0
KAM1 012221Z 14003KT 10/M14 A3034 RMK A01 T01001136  RH  018%=      5-min Rain = 0
KAM1 012222Z 09003KT 10/M13 A3034 RMK A01 T01001134  RH  018%=      5-min Rain = 0
KAM1 012223Z 06002KT 10/M13 A3034 RMK A01 T01001133  RH  018%=      5-min Rain = 0
KAM1 012224Z 01004KT 10/M13 A3034 RMK A01 T01011128  RH  018%=      5-min Rain = 0
KAM1 012225Z 01005KT 10/M13 A3034 RMK A01 T01041128  RH  018%=      5-min Rain = 0
KAM1 012226Z 34005KT 10/M13 A3034 RMK A01 T01041126  RH  018%=      5-min Rain = 0
KAM1 012227Z 36008KT 11/M13 A3034 RMK A01 T01051127  RH  018%=      5-min Rain = 0
KAM1 012228Z 02006KT 10/M13 A3034 RMK A01 T01021131  RH  018%=      5-min Rain = 0
KAM1 012229Z 06003KT 10/M13 A3034 RMK A01 T01001133  RH  018%=      5-min Rain = 0
KAM1 012230Z 10002KT 10/M13 A3034 RMK A01 T00981133  RH  018%=      5-min Rain = 0
KAM1 012231Z 06005KT 10/M13 A3034 RMK A01 T00971132  RH  018%=      5-min Rain = 0
KAM1 012232Z 06004KT 10/M13 A3034 RMK A01 T00981131  RH  018%=      5-min Rain = 0
KAM1 012233Z 09004KT 10/M13 A3033 RMK A01 T00981129  RH  019%=      5-min Rain = 0
KAM1 012234Z 12002KT 10/M13 A3033 RMK A01 T01001128  RH  019%=      5-min Rain = 0
KAM1 012235Z 05006KT 10/M13 A3033 RMK A01 T01011130  RH  018%=      5-min Rain = 0
KAM1 012236Z 01008KT 10/M13 A3034 RMK A01 T01021128  RH  018%=      5-min Rain = 0
KAM1 012237Z 01008KT 10/M13 A3034 RMK A01 T01041127  RH  018%=      5-min Rain = 0
KAM1 012238Z 01007KT 10/M13 A3034 RMK A01 T01031130  RH  018%=      5-min Rain = 0
KAM1 012239Z 04008KT 10/M13 A3034 RMK A01 T01021129  RH  018%=      5-min Rain = 0
KAM1 012240Z 02007KT 10/M13 A3034 RMK A01 T01021131  RH  018%=      5-min Rain = 0
KAM1 012241Z 34006KT 10/M13 A3034 RMK A01 T01031128  RH  018%=      5-min Rain = 0
KAM1 012242Z 02005KT 10/M13 A3034 RMK A01 T01021130  RH  018%=      5-min Rain = 0
KAM1 012243Z 06003KT 10/M13 A3034 RMK A01 T01011132  RH  018%=      5-min Rain = 0
KAM1 012244Z 07003KT 10/M13 A3034 RMK A01 T01001133  RH  018%=      5-min Rain = 0
KAM1 012245Z 04005KT 10/M13 A3034 RMK A01 T01001130  RH  018%=      5-min Rain = 0
KAM1 012246Z 05005KT 10/M13 A3034 RMK A01 T01011130  RH  018%=      5-min Rain = 0
KAM1 012247Z 04006KT 10/M13 A3034 RMK A01 T01011129  RH  018%=      5-min Rain = 0
KAM1 012248Z 05005KT 10/M13 A3034 RMK A01 T01011130  RH  018%=      5-min Rain = 0
KAM1 012249Z 07004KT 10/M13 A3034 RMK A01 T01001132  RH  018%=      5-min Rain = 0
KAM1 012250Z 07004KT 10/M13 A3034 RMK A01 T00991133  RH  018%=      5-min Rain = 0
KAM1 012251Z 05003KT 10/M13 A3034 RMK A01 T00981133  RH  018%=      5-min Rain = 0
KAM1 012252Z 08002KT 10/M13 A3033 RMK A01 T00981134  RH  018%=      5-min Rain = 0
KAM1 012253Z 12002KT 10/M13 A3033 RMK A01 T00981133  RH  018%=      5-min Rain = 0
KAM1 012254Z 09001KT 10/M14 A3033 RMK A01 T00981135  RH  018%=      5-min Rain = 0
KAM1 012255Z 09000KT 10/M13 A3033 RMK A01 T00981134  RH  018%=      5-min Rain = 0
KAM1 012256Z 10001KT 10/M13 A3033 RMK A01 T00981134  RH  018%=      5-min Rain = 0
KAM1 012257Z 08002KT 10/M14 A3033 RMK A01 T00991135  RH  018%=      5-min Rain = 0
KAM1 012258Z 08003KT 10/M14 A3033 RMK A01 T00991135  RH  018%=      5-min Rain = 0
KAM1 012259Z 07003KT 10/M13 A3033 RMK A01 T00981133  RH  018%=      5-min Rain = 0
KAM1 012300Z 07003KT 10/M13 A3033 RMK A01 T00991131  RH  018%=      5-min Rain = 0
KAM1 012301Z 08003KT 10/M13 A3033 RMK A01 T01001132  RH  018%=      5-min Rain = 0
KAM1 012302Z 07003KT 10/M13 A3033 RMK A01 T01001133  RH  018%=      5-min Rain = 0
KAM1 012303Z 04001KT 10/M13 A3033 RMK A01 T01001132  RH  018%=      5-min Rain = 0
KAM1 012304Z 30001KT 10/M13 A3033 RMK A01 T01011133  RH  018%=      5-min Rain = 0
KAM1 012305Z 30001KT 10/M13 A3033 RMK A01 T01031133  RH  018%=      5-min Rain = 0
KAM1 012306Z 30000KT 11/M13 A3033 RMK A01 T01051134  RH  017%=      5-min Rain = 0
KAM1 012307Z 00000KT 11/M13 A3033 RMK A01 T01071133  RH  017%=      5-min Rain = 0
KAM1 012308Z 07001KT 11/M13 A3033 RMK A01 T01081134  RH  017%=      5-min Rain = 0
KAM1 012309Z 04002KT 11/M13 A3033 RMK A01 T01071134  RH  017%=      5-min Rain = 0
KAM1 012310Z 00003KT 11/M14 A3033 RMK A01 T01051135  RH  017%=      5-min Rain = 0
KAM1 012311Z 35004KT 10/M14 A3033 RMK A01 T01031136  RH  017%=      5-min Rain = 0
KAM1 012312Z 00003KT 10/M14 A3033 RMK A01 T01021137  RH  017%=      5-min Rain = 0
KAM1 012313Z 04004KT 10/M14 A3033 RMK A01 T01011137  RH  017%=      5-min Rain = 0
KAM1 012314Z 02003KT 10/M14 A3033 RMK A01 T01001137  RH  017%=      5-min Rain = 0
KAM1 012315Z 34004KT 10/M14 A3033 RMK A01 T01001136  RH  018%=      5-min Rain = 0
KAM1 012316Z 34005KT 10/M14 A3033 RMK A01 T01001139  RH  017%=      5-min Rain = 0
KAM1 012317Z 36004KT 10/M14 A3033 RMK A01 T00991140  RH  017%=      5-min Rain = 0
KAM1 012318Z 36002KT 10/M14 A3033 RMK A01 T00991141  RH  017%=      5-min Rain = 0
KAM1 012319Z 03003KT 10/M14 A3033 RMK A01 T00981141  RH  017%=      5-min Rain = 0
KAM1 012320Z 06002KT 10/M14 A3033 RMK A01 T00981139  RH  017%=      5-min Rain = 0
KAM1 012321Z 05002KT 10/M14 A3033 RMK A01 T00991139  RH  017%=      5-min Rain = 0
KAM1 012322Z 06003KT 10/M14 A3033 RMK A01 T00991138  RH  017%=      5-min Rain = 0
KAM1 012323Z 06003KT 10/M14 A3033 RMK A01 T00981138  RH  017%=      5-min Rain = 0
KAM1 012324Z 06003KT 10/M14 A3033 RMK A01 T00991139  RH  017%=      5-min Rain = 0
KAM1 012325Z 08002KT 10/M14 A3033 RMK A01 T00981139  RH  017%=      5-min Rain = 0
KAM1 012326Z 09002KT 10/M14 A3033 RMK A01 T00981140  RH  017%=      5-min Rain = 0
KAM1 012327Z 01001KT 10/M14 A3033 RMK A01 T00981138  RH  017%=      5-min Rain = 0
KAM1 012328Z 27003KT 10/M14 A3033 RMK A01 T00991136  RH  018%=      5-min Rain = 0
KAM1 012329Z 27003KT 10/M14 A3033 RMK A01 T01011138  RH  017%=      5-min Rain = 0
KAM1 012330Z 29004KT 10/M14 A3033 RMK A01 T01011138  RH  017%=      5-min Rain = 0
KAM1 012331Z 31002KT 10/M14 A3033 RMK A01 T01011139  RH  017%=      5-min Rain = 0
KAM1 012332Z 34002KT 10/M14 A3033 RMK A01 T01001137  RH  017%=      5-min Rain = 0
KAM1 012333Z 00002KT 10/M14 A3033 RMK A01 T01001138  RH  017%=      5-min Rain = 0
KAM1 012334Z 01001KT 10/M14 A3033 RMK A01 T01001139  RH  017%=      5-min Rain = 0
KAM1 012335Z 00000KT 10/M14 A3033 RMK A01 T00991141  RH  017%=      5-min Rain = 0
KAM1 012336Z 00000KT 10/M14 A3033 RMK A01 T00991141  RH  017%=      5-min Rain = 0
KAM1 012337Z 00000KT 10/M14 A3033 RMK A01 T00991141  RH  017%=      5-min Rain = 0
KAM1 012338Z 00000KT 10/M14 A3033 RMK A01 T01001140  RH  017%=      5-min Rain = 0
KAM1 012339Z 28001KT 10/M14 A3033 RMK A01 T01021136  RH  017%=      5-min Rain = 0
KAM1 012340Z 28002KT 10/M14 A3033 RMK A01 T01041136  RH  017%=      5-min Rain = 0
KAM1 012341Z 27001KT 10/M14 A3033 RMK A01 T01041137  RH  017%=      5-min Rain = 0
KAM1 012342Z 26001KT 11/M14 A3033 RMK A01 T01051135  RH  017%=      5-min Rain = 0
KAM1 012343Z 28000KT 11/M14 A3033 RMK A01 T01051136  RH  017%=      5-min Rain = 0
KAM1 012344Z 00000KT 11/M13 A3033 RMK A01 T01051134  RH  017%=      5-min Rain = 0
KAM1 012345Z 30001KT 11/M13 A3033 RMK A01 T01061133  RH  017%=      5-min Rain = 0
KAM1 012346Z 29004KT 11/M14 A3033 RMK A01 T01061135  RH  017%=      5-min Rain = 0
KAM1 012347Z 28004KT 11/M14 A3033 RMK A01 T01051135  RH  017%=      5-min Rain = 0
KAM1 012348Z 27003KT 10/M14 A3033 RMK A01 T01031137  RH  017%=      5-min Rain = 0
KAM1 012349Z 25003KT 10/M14 A3033 RMK A01 T01021135  RH  017%=      5-min Rain = 0
KAM1 012350Z 26002KT 10/M14 A3033 RMK A01 T01011136  RH  017%=      5-min Rain = 0
KAM1 012351Z 26002KT 10/M14 A3033 RMK A01 T01001137  RH  017%=      5-min Rain = 0
KAM1 012352Z 28002KT 10/M14 A3033 RMK A01 T01001135  RH  018%=      5-min Rain = 0
KAM1 012353Z 27003KT 10/M14 A3033 RMK A01 T01001135  RH  018%=      5-min Rain = 0
KAM1 012354Z 26004KT 10/M13 A3033 RMK A01 T01011134  RH  018%=      5-min Rain = 0
KAM1 012355Z 27003KT 10/M13 A3033 RMK A01 T01001133  RH  018%=      5-min Rain = 0
KAM1 012356Z 25004KT 10/M13 A3033 RMK A01 T00991133  RH  018%=      5-min Rain = 0
KAM1 012357Z 26003KT 10/M14 A3033 RMK A01 T00991135  RH  018%=      5-min Rain = 0
KAM1 012358Z 25002KT 10/M14 A3033 RMK A01 T00981137  RH  018%=      5-min Rain = 0
KAM1 012359Z 26002KT 10/M14 A3033 RMK A01 T00981137  RH  018%=      5-min Rain = 0
KAM1 020000Z 26002KT 10/M14 A3033 RMK A01 T00971137  RH  018%=      5-min Rain = 0
KAM1 020001Z 27002KT 10/M14 A3033 RMK A01 T00971137  RH  018%=      5-min Rain = 0
KAM1 020002Z 29002KT 10/M14 A3033 RMK A01 T00971138  RH  018%=      5-min Rain = 0
KAM1 020003Z 30002KT 10/M14 A3033 RMK A01 T00981137  RH  018%=      5-min Rain = 0
KAM1 020004Z 34002KT 10/M14 A3033 RMK A01 T00971136  RH  018%=      5-min Rain = 0
KAM1 020005Z 33002KT 10/M14 A3033 RMK A01 T00971139  RH  017%=      5-min Rain = 0
KAM1 020006Z 31003KT 10/M14 A3033 RMK A01 T00951140  RH  018%=      5-min Rain = 0
KAM1 020007Z 32002KT 09/M14 A3033 RMK A01 T00941137  RH  018%=      5-min Rain = 0
KAM1 020008Z 33003KT 09/M14 A3033 RMK A01 T00941137  RH  018%=      5-min Rain = 0
KAM1 020009Z 34003KT 09/M14 A3033 RMK A01 T00931137  RH  018%=      5-min Rain = 0
KAM1 020010Z 35002KT 09/M14 A3033 RMK A01 T00931139  RH  018%=      5-min Rain = 0
KAM1 020011Z 36002KT 09/M14 A3033 RMK A01 T00921141  RH  018%=      5-min Rain = 0
KAM1 020012Z 35001KT 09/M14 A3033 RMK A01 T00921141  RH  018%=      5-min Rain = 0
KAM1 020013Z 34001KT 09/M14 A3033 RMK A01 T00911140  RH  018%=      5-min Rain = 0
KAM1 020014Z 34001KT 09/M14 A3033 RMK A01 T00911139  RH  018%=      5-min Rain = 0
KAM1 020015Z 34001KT 09/M14 A3033 RMK A01 T00921139  RH  018%=      5-min Rain = 0
KAM1 020016Z 33001KT 09/M14 A3033 RMK A01 T00931139  RH  018%=      5-min Rain = 0
KAM1 020017Z 33001KT 09/M14 A3033 RMK A01 T00941139  RH  018%=      5-min Rain = 0
KAM1 020018Z 34000KT 09/M14 A3033 RMK A01 T00941139  RH  018%=      5-min Rain = 0
KAM1 020019Z 00000KT 09/M14 A3033 RMK A01 T00941141  RH  017%=      5-min Rain = 0
KAM1 020020Z 00000KT 09/M14 A3033 RMK A01 T00941140  RH  018%=      5-min Rain = 0
KAM1 020021Z 00000KT 09/M14 A3033 RMK A01 T00921140  RH  018%=      5-min Rain = 0
KAM1 020022Z 00000KT 09/M14 A3033 RMK A01 T00901142  RH  018%=      5-min Rain = 0
KAM1 020023Z 00000KT 09/M14 A3033 RMK A01 T00891143  RH  018%=      5-min Rain = 0
KAM1 020024Z 00000KT 09/M14 A3033 RMK A01 T00881143  RH  018%=      5-min Rain = 0
KAM1 020025Z 00000KT 09/M14 A3033 RMK A01 T00881144  RH  018%=      5-min Rain = 0
KAM1 020026Z 00000KT 09/M14 A3033 RMK A01 T00871144  RH  018%=      5-min Rain = 0
KAM1 020027Z 00000KT 09/M14 A3033 RMK A01 T00881144  RH  018%=      5-min Rain = 0
KAM1 020028Z 00000KT 09/M14 A3033 RMK A01 T00881143  RH  018%=      5-min Rain = 0
KAM1 020029Z 00000KT 09/M14 A3033 RMK A01 T00871143  RH  018%=      5-min Rain = 0
KAM1 020030Z 00000KT 09/M14 A3033 RMK A01 T00871143  RH  018%=      5-min Rain = 0
KAM1 020031Z 12001KT 09/M14 A3033 RMK A01 T00871143  RH  018%=      5-min Rain = 0
KAM1 020032Z 12002KT 09/M14 A3033 RMK A01 T00861143  RH  018%=      5-min Rain = 0
KAM1 020033Z 13002KT 08/M14 A3033 RMK A01 T00841144  RH  018%=      5-min Rain = 0
KAM1 020034Z 13001KT 08/M14 A3033 RMK A01 T00831144  RH  018%=      5-min Rain = 0
KAM1 020035Z 13001KT 08/M14 A3033 RMK A01 T00821144  RH  019%=      5-min Rain = 0
KAM1 020036Z 13001KT 08/M14 A3033 RMK A01 T00821143  RH  019%=      5-min Rain = 0
KAM1 020037Z 13001KT 08/M14 A3033 RMK A01 T00831142  RH  019%=      5-min Rain = 0
KAM1 020038Z 13000KT 08/M14 A3033 RMK A01 T00831143  RH  019%=      5-min Rain = 0
KAM1 020039Z 00000KT 08/M14 A3033 RMK A01 T00831143  RH  019%=      5-min Rain = 0
KAM1 020040Z 00000KT 08/M14 A3033 RMK A01 T00821143  RH  019%=      5-min Rain = 0
KAM1 020041Z 00000KT 08/M14 A3033 RMK A01 T00801144  RH  019%=      5-min Rain = 0
KAM1 020042Z 12000KT 08/M15 A3033 RMK A01 T00781145  RH  019%=      5-min Rain = 0
KAM1 020043Z 12001KT 08/M15 A3033 RMK A01 T00771145  RH  019%=      5-min Rain = 0
KAM1 020044Z 12001KT 07/M15 A3033 RMK A01 T00741145  RH  019%=      5-min Rain = 0
KAM1 020045Z 12001KT 07/M15 A3033 RMK A01 T00721145  RH  020%=      5-min Rain = 0
KAM1 020046Z 12001KT 07/M14 A3033 RMK A01 T00711144  RH  020%=      5-min Rain = 0
KAM1 020047Z 12001KT 07/M14 A3033 RMK A01 T00711142  RH  020%=      5-min Rain = 0
KAM1 020048Z 12001KT 07/M14 A3033 RMK A01 T00711141  RH  020%=      5-min Rain = 0
KAM1 020049Z 12000KT 07/M14 A3033 RMK A01 T00711140  RH  021%=      5-min Rain = 0
KAM1 020050Z 00000KT 07/M14 A3033 RMK A01 T00721139  RH  021%=      5-min Rain = 0
KAM1 020051Z 00000KT 07/M14 A3033 RMK A01 T00721139  RH  021%=      5-min Rain = 0
KAM1 020052Z 00000KT 07/M14 A3033 RMK A01 T00721139  RH  021%=      5-min Rain = 0
KAM1 020053Z 00000KT 07/M14 A3033 RMK A01 T00721139  RH  021%=      5-min Rain = 0
KAM1 020054Z 00000KT 07/M14 A3033 RMK A01 T00721138  RH  021%=      5-min Rain = 0
KAM1 020055Z 00000KT 07/M14 A3033 RMK A01 T00721138  RH  021%=      5-min Rain = 0
KAM1 020056Z 00000KT 07/M14 A3033 RMK A01 T00721138  RH  021%=      5-min Rain = 0
KAM1 020057Z 00000KT 07/M14 A3033 RMK A01 T00721138  RH  021%=      5-min Rain = 0
KAM1 020058Z 16001KT 07/M14 A3033 RMK A01 T00741138  RH  021%=      5-min Rain = 0
KAM1 020059Z 16001KT 08/M14 A3033 RMK A01 T00751138  RH  020%=      5-min Rain = 0
KAM1 020100Z 16001KT 08/M14 A3033 RMK A01 T00761137  RH  020%=      5-min Rain = 0
KAM1 020101Z 16001KT 08/M14 A3033 RMK A01 T00761138  RH  020%=      5-min Rain = 0
KAM1 020102Z 16001KT 08/M14 A3033 RMK A01 T00751139  RH  020%=      5-min Rain = 0
KAM1 020103Z 16000KT 07/M14 A3033 RMK A01 T00711141  RH  020%=      5-min Rain = 0
KAM1 020104Z 16000KT 07/M14 A3033 RMK A01 T00681141  RH  021%=      5-min Rain = 0
KAM1 020105Z 16001KT 07/M14 A3033 RMK A01 T00671140  RH  021%=      5-min Rain = 0
KAM1 020106Z 14001KT 07/M14 A3033 RMK A01 T00671139  RH  021%=      5-min Rain = 0
KAM1 020107Z 14001KT 07/M14 A3033 RMK A01 T00671139  RH  021%=      5-min Rain = 0
KAM1 020108Z 13001KT 07/M14 A3033 RMK A01 T00671138  RH  022%=      5-min Rain = 0
KAM1 020109Z 12000KT 07/M14 A3033 RMK A01 T00661138  RH  022%=      5-min Rain = 0
KAM1 020110Z 12000KT 07/M14 A3033 RMK A01 T00681138  RH  021%=      5-min Rain = 0
KAM1 020111Z 00000KT 07/M14 A3033 RMK A01 T00681138  RH  021%=      5-min Rain = 0
KAM1 020112Z 13000KT 07/M14 A3033 RMK A01 T00691138  RH  021%=      5-min Rain = 0
KAM1 020113Z 13001KT 07/M14 A3033 RMK A01 T00691139  RH  021%=      5-min Rain = 0
KAM1 020114Z 13001KT 07/M14 A3033 RMK A01 T00691139  RH  021%=      5-min Rain = 0
KAM1 020115Z 13001KT 07/M14 A3033 RMK A01 T00691139  RH  021%=      5-min Rain = 0
KAM1 020116Z 13001KT 07/M14 A3033 RMK A01 T00691139  RH  021%=      5-min Rain = 0
KAM1 020117Z 13001KT 07/M14 A3033 RMK A01 T00691140  RH  021%=      5-min Rain = 0
KAM1 020118Z 13001KT 07/M14 A3033 RMK A01 T00691140  RH  021%=      5-min Rain = 0
KAM1 020119Z 13001KT 07/M14 A3033 RMK A01 T00691140  RH  021%=      5-min Rain = 0
KAM1 020120Z 13001KT 07/M14 A3033 RMK A01 T00691140  RH  021%=      5-min Rain = 0
KAM1 020121Z 13001KT 07/M14 A3033 RMK A01 T00681140  RH  021%=      5-min Rain = 0
KAM1 020122Z 13001KT 07/M14 A3033 RMK A01 T00681141  RH  021%=      5-min Rain = 0
KAM1 020123Z 13001KT 07/M14 A3033 RMK A01 T00671140  RH  021%=      5-min Rain = 0
KAM1 020124Z 16002KT 07/M14 A3033 RMK A01 T00671140  RH  021%=      5-min Rain = 0
KAM1 020125Z 18004KT 06/M14 A3033 RMK A01 T00631142  RH  021%=      5-min Rain = 0
KAM1 020126Z 19004KT 06/M15 A3033 RMK A01 T00551147  RH  022%=      5-min Rain = 0
KAM1 020127Z 20004KT 05/M15 A3033 RMK A01 T00461150  RH  023%=      5-min Rain = 0
KAM1 020128Z 20004KT 04/M15 A3033 RMK A01 T00401150  RH  024%=      5-min Rain = 0
KAM1 020129Z 20003KT 04/M14 A3033 RMK A01 T00391143  RH  025%=      5-min Rain = 0
KAM1 020130Z 19003KT 05/M14 A3033 RMK A01 T00461136  RH  025%=      5-min Rain = 0
KAM1 020131Z 18003KT 05/M13 A3033 RMK A01 T00521134  RH  025%=      5-min Rain = 0
KAM1 020132Z 18003KT 06/M13 A3033 RMK A01 T00551134  RH  024%=      5-min Rain = 0
KAM1 020133Z 18002KT 05/M14 A3033 RMK A01 T00521141  RH  023%=      5-min Rain = 0
KAM1 020134Z 18001KT 04/M15 A3033 RMK A01 T00441146  RH  024%=      5-min Rain = 0
KAM1 020135Z 19001KT 04/M14 A3033 RMK A01 T00381144  RH  025%=      5-min Rain = 0
KAM1 020136Z 18001KT 04/M14 A3033 RMK A01 T00371141  RH  026%=      5-min Rain = 0
KAM1 020137Z 18000KT 04/M14 A3033 RMK A01 T00391139  RH  026%=      5-min Rain = 0
KAM1 020138Z 00000KT 04/M14 A3033 RMK A01 T00411138  RH  026%=      5-min Rain = 0
KAM1 020139Z 00000KT 04/M14 A3033 RMK A01 T00421138  RH  026%=      5-min Rain = 0
KAM1 020140Z 00000KT 04/M14 A3033 RMK A01 T00431138  RH  025%=      5-min Rain = 0
KAM1 020141Z 00000KT 05/M14 A3033 RMK A01 T00461137  RH  025%=      5-min Rain = 0
KAM1 020142Z 15000KT 05/M14 A3033 RMK A01 T00481137  RH  025%=      5-min Rain = 0
KAM1 020143Z 14002KT 05/M14 A3033 RMK A01 T00501137  RH  024%=      5-min Rain = 0
KAM1 020144Z 14002KT 05/M14 A3033 RMK A01 T00521136  RH  024%=      5-min Rain = 0
KAM1 020145Z 14002KT 06/M14 A3033 RMK A01 T00551135  RH  024%=      5-min Rain = 0
KAM1 020146Z 14001KT 06/M14 A3033 RMK A01 T00571135  RH  024%=      5-min Rain = 0
KAM1 020147Z 14001KT 06/M14 A3033 RMK A01 T00571136  RH  023%=      5-min Rain = 0
KAM1 020148Z 14001KT 06/M14 A3033 RMK A01 T00581135  RH  024%=      5-min Rain = 0
KAM1 020149Z 14001KT 06/M13 A3033 RMK A01 T00581134  RH  024%=      5-min Rain = 0
KAM1 020150Z 14000KT 06/M13 A3033 RMK A01 T00591132  RH  024%=      5-min Rain = 0
KAM1 020151Z 00000KT 06/M13 A3033 RMK A01 T00601133  RH  024%=      5-min Rain = 0
KAM1 020152Z 00000KT 06/M13 A3033 RMK A01 T00601134  RH  023%=      5-min Rain = 0
KAM1 020153Z 00000KT 06/M13 A3033 RMK A01 T00601134  RH  023%=      5-min Rain = 0
KAM1 020154Z 00000KT 06/M14 A3033 RMK A01 T00601135  RH  023%=      5-min Rain = 0
KAM1 020155Z 00000KT 06/M14 A3033 RMK A01 T00611136  RH  023%=      5-min Rain = 0
KAM1 020156Z 00000KT 06/M14 A3033 RMK A01 T00611136  RH  023%=      5-min Rain = 0
KAM1 020157Z 17001KT 06/M14 A3033 RMK A01 T00621136  RH  023%=      5-min Rain = 0
KAM1 020158Z 16001KT 06/M14 A3033 RMK A01 T00611136  RH  023%=      5-min Rain = 0
KAM1 020159Z 16001KT 06/M14 A3033 RMK A01 T00601136  RH  023%=      5-min Rain = 0
KAM1 020200Z 17001KT 06/M14 A3033 RMK A01 T00601136  RH  023%=      5-min Rain = 0
KAM1 020201Z 20001KT 06/M14 A3033 RMK A01 T00561138  RH  023%=      5-min Rain = 0
KAM1 020202Z 25002KT 04/M14 A3033 RMK A01 T00441144  RH  024%=      5-min Rain = 0
KAM1 020203Z 23002KT 03/M15 A3033 RMK A01 T00301147  RH  026%=      5-min Rain = 0
KAM1 020204Z 24002KT 03/M14 A3034 RMK A01 T00261143  RH  028%=      5-min Rain = 0
KAM1 020205Z 23002KT 03/M14 A3034 RMK A01 T00261141  RH  028%=      5-min Rain = 0
KAM1 020206Z 23002KT 03/M14 A3034 RMK A01 T00301137  RH  028%=      5-min Rain = 0
KAM1 020207Z 23002KT 04/M13 A3034 RMK A01 T00371134  RH  027%=      5-min Rain = 0
KAM1 020208Z 23002KT 04/M14 A3034 RMK A01 T00401135  RH  027%=      5-min Rain = 0
KAM1 020209Z 22003KT 04/M14 A3034 RMK A01 T00421135  RH  026%=      5-min Rain = 0
KAM1 020210Z 22003KT 04/M14 A3034 RMK A01 T00441135  RH  026%=      5-min Rain = 0
KAM1 020211Z 22003KT 04/M14 A3034 RMK A01 T00441136  RH  026%=      5-min Rain = 0
KAM1 020212Z 21003KT 05/M14 A3033 RMK A01 T00451136  RH  026%=      5-min Rain = 0
KAM1 020213Z 21003KT 05/M14 A3033 RMK A01 T00451136  RH  025%=      5-min Rain = 0
KAM1 020214Z 20003KT 05/M14 A3033 RMK A01 T00451136  RH  025%=      5-min Rain = 0
KAM1 020215Z 20002KT 05/M14 A3033 RMK A01 T00451136  RH  025%=      5-min Rain = 0
KAM1 020216Z 19002KT 05/M14 A3033 RMK A01 T00461136  RH  025%=      5-min Rain = 0
KAM1 020217Z 19002KT 05/M14 A3033 RMK A01 T00461135  RH  025%=      5-min Rain = 0
KAM1 020218Z 19002KT 05/M14 A3033 RMK A01 T00481135  RH  025%=      5-min Rain = 0
KAM1 020219Z 19002KT 05/M13 A3033 RMK A01 T00491134  RH  025%=      5-min Rain = 0
KAM1 020220Z 19002KT 05/M13 A3033 RMK A01 T00501134  RH  025%=      5-min Rain = 0
KAM1 020221Z 18002KT 05/M13 A3033 RMK A01 T00501134  RH  025%=      5-min Rain = 0
KAM1 020222Z 18003KT 05/M13 A3033 RMK A01 T00511134  RH  025%=      5-min Rain = 0
KAM1 020223Z 18002KT 05/M13 A3033 RMK A01 T00511134  RH  025%=      5-min Rain = 0
KAM1 020224Z 18002KT 05/M14 A3034 RMK A01 T00511135  RH  025%=      5-min Rain = 0
KAM1 020225Z 18002KT 05/M14 A3034 RMK A01 T00511135  RH  025%=      5-min Rain = 0
KAM1 020226Z 18002KT 05/M14 A3034 RMK A01 T00501135  RH  025%=      5-min Rain = 0
KAM1 020227Z 18002KT 05/M14 A3034 RMK A01 T00491136  RH  025%=      5-min Rain = 0
KAM1 020228Z 18002KT 05/M14 A3034 RMK A01 T00471136  RH  025%=      5-min Rain = 0
KAM1 020229Z 19002KT 05/M14 A3034 RMK A01 T00461137  RH  025%=      5-min Rain = 0
KAM1 020230Z 20002KT 05/M14 A3034 RMK A01 T00451136  RH  025%=      5-min Rain = 0
KAM1 020231Z 20002KT 05/M14 A3034 RMK A01 T00451135  RH  026%=      5-min Rain = 0
KAM1 020232Z 19002KT 05/M14 A3034 RMK A01 T00461135  RH  026%=      5-min Rain = 0
KAM1 020233Z 19002KT 05/M14 A3034 RMK A01 T00461135  RH  026%=      5-min Rain = 0
KAM1 020234Z 19002KT 05/M14 A3034 RMK A01 T00461135  RH  025%=      5-min Rain = 0
KAM1 020235Z 19002KT 05/M14 A3034 RMK A01 T00471135  RH  025%=      5-min Rain = 0
KAM1 020236Z 19003KT 05/M14 A3034 RMK A01 T00471136  RH  025%=      5-min Rain = 0
KAM1 020237Z 20002KT 05/M14 A3034 RMK A01 T00471136  RH  025%=      5-min Rain = 0
KAM1 020238Z 20002KT 05/M14 A3034 RMK A01 T00451136  RH  025%=      5-min Rain = 0
KAM1 020239Z 20002KT 04/M14 A3034 RMK A01 T00431137  RH  026%=      5-min Rain = 0
KAM1 020240Z 20003KT 04/M14 A3034 RMK A01 T00431136  RH  026%=      5-min Rain = 0
KAM1 020241Z 20002KT 04/M14 A3034 RMK A01 T00431136  RH  026%=      5-min Rain = 0
KAM1 020242Z 21002KT 04/M14 A3034 RMK A01 T00421136  RH  026%=      5-min Rain = 0
KAM1 020243Z 22003KT 04/M14 A3034 RMK A01 T00421136  RH  026%=      5-min Rain = 0
KAM1 020244Z 22003KT 04/M14 A3034 RMK A01 T00411136  RH  026%=      5-min Rain = 0
KAM1 020245Z 23004KT 03/M14 A3034 RMK A01 T00341138  RH  027%=      5-min Rain = 0
KAM1 020246Z 23004KT 03/M14 A3034 RMK A01 T00301137  RH  028%=      5-min Rain = 0
KAM1 020247Z 24006KT 02/M14 A3034 RMK A01 T00241138  RH  029%=      5-min Rain = 0
KAM1 020248Z 24005KT 02/M14 A3034 RMK A01 T00241135  RH  030%=      5-min Rain = 0
KAM1 020249Z 23006KT 03/M13 A3034 RMK A01 T00251132  RH  030%=      5-min Rain = 0
KAM1 020250Z 23006KT 03/M13 A3034 RMK A01 T00251132  RH  030%=      5-min Rain = 0
KAM1 020251Z 22006KT 03/M13 A3034 RMK A01 T00251131  RH  031%=      5-min Rain = 0
KAM1 020252Z 22006KT 02/M13 A3034 RMK A01 T00231132  RH  031%=      5-min Rain = 0
KAM1 020253Z 23006KT 02/M13 A3034 RMK A01 T00181133  RH  032%=      5-min Rain = 0
KAM1 020254Z 22006KT 02/M13 A3034 RMK A01 T00161132  RH  032%=      5-min Rain = 0
KAM1 020255Z 22006KT 02/M13 A3034 RMK A01 T00161131  RH  033%=      5-min Rain = 0
KAM1 020256Z 22006KT 02/M13 A3034 RMK A01 T00151131  RH  033%=      5-min Rain = 0
KAM1 020257Z 22006KT 02/M13 A3034 RMK A01 T00151130  RH  033%=      5-min Rain = 0
KAM1 020258Z 22006KT 02/M13 A3034 RMK A01 T00151131  RH  033%=      5-min Rain = 0
KAM1 020259Z 22006KT 01/M13 A3034 RMK A01 T00131132  RH  033%=      5-min Rain = 0
KAM1 020300Z 21006KT 01/M13 A3034 RMK A01 T00101133  RH  033%=      5-min Rain = 0
KAM1 020301Z 21006KT 01/M13 A3034 RMK A01 T00071134  RH  034%=      5-min Rain = 0
KAM1 020302Z 21005KT 01/M13 A3034 RMK A01 T00061133  RH  034%=      5-min Rain = 0
KAM1 020303Z 21005KT 01/M13 A3034 RMK A01 T00061132  RH  035%=      5-min Rain = 0
KAM1 020304Z 21006KT 01/M13 A3034 RMK A01 T00061132  RH  035%=      5-min Rain = 0
KAM1 020305Z 21006KT 01/M13 A3034 RMK A01 T00091130  RH  035%=      5-min Rain = 0
KAM1 020306Z 21006KT 01/M13 A3034 RMK A01 T00131128  RH  034%=      5-min Rain = 0
KAM1 020307Z 20005KT 02/M13 A3034 RMK A01 T00181126  RH  033%=      5-min Rain = 0
KAM1 020308Z 20005KT 02/M13 A3034 RMK A01 T00231126  RH  032%=      5-min Rain = 0
KAM1 020309Z 19006KT 03/M13 A3034 RMK A01 T00251127  RH  032%=      5-min Rain = 0
KAM1 020310Z 20006KT 03/M13 A3034 RMK A01 T00271128  RH  031%=      5-min Rain = 0
KAM1 020311Z 20006KT 03/M13 A3034 RMK A01 T00281129  RH  031%=      5-min Rain = 0
KAM1 020312Z 20006KT 03/M13 A3034 RMK A01 T00271130  RH  031%=      5-min Rain = 0
KAM1 020313Z 20006KT 03/M13 A3034 RMK A01 T00251131  RH  031%=      5-min Rain = 0
KAM1 020314Z 20006KT 02/M13 A3034 RMK A01 T00241132  RH  031%=      5-min Rain = 0
KAM1 020315Z 19005KT 02/M13 A3034 RMK A01 T00241131  RH  031%=      5-min Rain = 0
KAM1 020316Z 18004KT 02/M14 A3034 RMK A01 T00181137  RH  031%=      5-min Rain = 0
KAM1 020317Z 17004KT 01/M14 A3034 RMK A01 T00071143  RH  032%=      5-min Rain = 0
KAM1 020318Z 17004KT M00/M13 A3034 RMK A01 T10011134  RH  036%=      5-min Rain = 0
KAM1 020319Z 17004KT M01/M12 A3034 RMK A01 T10091122  RH  042%=      5-min Rain = 0
KAM1 020320Z 18004KT M01/M12 A3034 RMK A01 T10131118  RH  045%=      5-min Rain = 0
KAM1 020321Z 18004KT M01/M12 A3034 RMK A01 T10141116  RH  046%=      5-min Rain = 0
KAM1 020322Z 18004KT M01/M12 A3034 RMK A01 T10131118  RH  045%=      5-min Rain = 0
KAM1 020323Z 18005KT M01/M12 A3034 RMK A01 T10101116  RH  045%=      5-min Rain = 0
KAM1 020324Z 18004KT M01/M12 A3034 RMK A01 T10091117  RH  044%=      5-min Rain = 0
KAM1 020325Z 18004KT M01/M12 A3034 RMK A01 T10081118  RH  043%=      5-min Rain = 0
KAM1 020326Z 18004KT M01/M11 A3034 RMK A01 T10081114  RH  044%=      5-min Rain = 0
KAM1 020327Z 18004KT M01/M11 A3034 RMK A01 T10051111  RH  044%=      5-min Rain = 0
KAM1 020328Z 18004KT M00/M11 A3034 RMK A01 T10011113  RH  043%=      5-min Rain = 0
KAM1 020329Z 19005KT 00/M12 A3034 RMK A01 T00031115  RH  041%=      5-min Rain = 0
KAM1 020330Z 19005KT 01/M12 A3034 RMK A01 T00071120  RH  038%=      5-min Rain = 0
KAM1 020331Z 19005KT 01/M12 A3034 RMK A01 T00101124  RH  036%=      5-min Rain = 0
KAM1 020332Z 20005KT 01/M13 A3033 RMK A01 T00111126  RH  035%=      5-min Rain = 0
KAM1 020333Z 19005KT 01/M13 A3033 RMK A01 T00111127  RH  035%=      5-min Rain = 0
KAM1 020334Z 19005KT 01/M13 A3033 RMK A01 T00101128  RH  035%=      5-min Rain = 0
KAM1 020335Z 19005KT 01/M13 A3033 RMK A01 T00101128  RH  035%=      5-min Rain = 0
KAM1 020336Z 19005KT 01/M13 A3033 RMK A01 T00111128  RH  035%=      5-min Rain = 0
KAM1 020337Z 19004KT 01/M13 A3033 RMK A01 T00111129  RH  034%=      5-min Rain = 0
KAM1 020338Z 19004KT 00/M13 A3033 RMK A01 T00041132  RH  035%=      5-min Rain = 0
KAM1 020339Z 19004KT 00/M13 A3033 RMK A01 T00021131  RH  036%=      5-min Rain = 0
KAM1 020340Z 19004KT 00/M13 A3033 RMK A01 T00031130  RH  036%=      5-min Rain = 0
KAM1 020341Z 19005KT 01/M13 A3033 RMK A01 T00061128  RH  036%=      5-min Rain = 0
KAM1 020342Z 19005KT 01/M13 A3033 RMK A01 T00081127  RH  036%=      5-min Rain = 0
KAM1 020343Z 19005KT 01/M13 A3033 RMK A01 T00111126  RH  035%=      5-min Rain = 0
KAM1 020344Z 20005KT 01/M13 A3033 RMK A01 T00131125  RH  035%=      5-min Rain = 0
KAM1 020345Z 20005KT 01/M13 A3033 RMK A01 T00141126  RH  034%=      5-min Rain = 0
KAM1 020346Z 20005KT 01/M13 A3033 RMK A01 T00131128  RH  034%=      5-min Rain = 0
KAM1 020347Z 20005KT 01/M13 A3033 RMK A01 T00111130  RH  034%=      5-min Rain = 0
KAM1 020348Z 20005KT 01/M13 A3033 RMK A01 T00091132  RH  034%=      5-min Rain = 0
KAM1 020349Z 20005KT 01/M13 A3034 RMK A01 T00061133  RH  035%=      5-min Rain = 0
KAM1 020350Z 20005KT 00/M13 A3034 RMK A01 T00031134  RH  035%=      5-min Rain = 0
KAM1 020351Z 20005KT 00/M13 A3034 RMK A01 T00021134  RH  035%=      5-min Rain = 0
KAM1 020352Z 20005KT 00/M13 A3034 RMK A01 T00021133  RH  036%=      5-min Rain = 0
KAM1 020353Z 20005KT 00/M13 A3034 RMK A01 T00021132  RH  036%=      5-min Rain = 0
KAM1 020354Z 20005KT 00/M13 A3034 RMK A01 T00021132  RH  036%=      5-min Rain = 0
KAM1 020355Z 20005KT 00/M13 A3034 RMK A01 T00021131  RH  036%=      5-min Rain = 0
KAM1 020356Z 20005KT 00/M13 A3034 RMK A01 T00021130  RH  036%=      5-min Rain = 0
KAM1 020357Z 20006KT 00/M13 A3034 RMK A01 T00021131  RH  036%=      5-min Rain = 0
KAM1 020358Z 20006KT 00/13 A3034 RMK A01 T00-00-132  RH  036%=      5-min Rain = 0
KAM1 020359Z 19006KT M00/M13 A3034 RMK A01 T10021133  RH  036%=      5-min Rain = 0
KAM1 020400Z 19005KT M00/M13 A3034 RMK A01 T10031133  RH  037%=      5-min Rain = 0
KAM1 020401Z 19005KT M01/M13 A3034 RMK A01 T10051134  RH  037%=      5-min Rain = 0
KAM1 020402Z 19006KT M01/M13 A3034 RMK A01 T10061133  RH  038%=      5-min Rain = 0
KAM1 020403Z 18005KT M01/M13 A3034 RMK A01 T10081133  RH  038%=      5-min Rain = 0
KAM1 020404Z 18005KT M01/M13 A3034 RMK A01 T10091133  RH  038%=      5-min Rain = 0
KAM1 020405Z 17005KT M01/M13 A3034 RMK A01 T10101133  RH  039%=      5-min Rain = 0
KAM1 020406Z 17005KT M01/M13 A3033 RMK A01 T10101132  RH  039%=      5-min Rain = 0
KAM1 020407Z 17005KT M01/M13 A3033 RMK A01 T10091132  RH  039%=      5-min Rain = 0
KAM1 020408Z 17006KT M01/M13 A3033 RMK A01 T10091132  RH  039%=      5-min Rain = 0
KAM1 020409Z 17006KT M01/M13 A3033 RMK A01 T10091133  RH  039%=      5-min Rain = 0
KAM1 020410Z 17006KT M01/M13 A3033 RMK A01 T10111134  RH  038%=      5-min Rain = 0
KAM1 020411Z 18006KT M01/M14 A3034 RMK A01 T10121136  RH  038%=      5-min Rain = 0
KAM1 020412Z 19005KT M01/M14 A3034 RMK A01 T10131136  RH  039%=      5-min Rain = 0
KAM1 020413Z 21005KT M01/M14 A3034 RMK A01 T10131136  RH  039%=      5-min Rain = 0
KAM1 020414Z 20005KT M01/M13 A3034 RMK A01 T10111133  RH  039%=      5-min Rain = 0
KAM1 020415Z 20004KT M01/M13 A3034 RMK A01 T10071130  RH  039%=      5-min Rain = 0
KAM1 020416Z 19004KT M01/M13 A3034 RMK A01 T10071132  RH  038%=      5-min Rain = 0
KAM1 020417Z 18004KT M01/M13 A3034 RMK A01 T10071134  RH  038%=      5-min Rain = 0
KAM1 020418Z 18004KT M01/M13 A3034 RMK A01 T10081134  RH  038%=      5-min Rain = 0
KAM1 020419Z 18005KT M01/M13 A3034 RMK A01 T10071130  RH  039%=      5-min Rain = 0
KAM1 020420Z 18005KT M01/M12 A3034 RMK A01 T10051124  RH  040%=      5-min Rain = 0
KAM1 020421Z 18004KT M00/M12 A3034 RMK A01 T10021123  RH  040%=      5-min Rain = 0
KAM1 020422Z 18004KT 00/12 A3033 RMK A01 T00000-124  RH  039%=      5-min Rain = 0
KAM1 020423Z 18004KT 00/M12 A3033 RMK A01 T00031124  RH  038%=      5-min Rain = 0
KAM1 020424Z 18004KT 01/M13 A3033 RMK A01 T00051125  RH  037%=      5-min Rain = 0
KAM1 020425Z 18004KT 01/M13 A3033 RMK A01 T00071125  RH  036%=      5-min Rain = 0
KAM1 020426Z 19004KT 01/M13 A3033 RMK A01 T00071127  RH  036%=      5-min Rain = 0
KAM1 020427Z 21004KT 01/M13 A3033 RMK A01 T00051129  RH  036%=      5-min Rain = 0
KAM1 020428Z 22006KT 00/13 A3034 RMK A01 T00000-133  RH  036%=      5-min Rain = 0
KAM1 020429Z 21005KT 00/M13 A3034 RMK A01 T00011129  RH  037%=      5-min Rain = 0
KAM1 020430Z 21005KT 00/M13 A3034 RMK A01 T00011129  RH  037%=      5-min Rain = 0
KAM1 020431Z 20005KT M00/M13 A3034 RMK A01 T10011130  RH  037%=      5-min Rain = 0
KAM1 020432Z 20005KT M00/M13 A3034 RMK A01 T10021130  RH  037%=      5-min Rain = 0
KAM1 020433Z 19005KT M00/M13 A3033 RMK A01 T10031130  RH  038%=      5-min Rain = 0
KAM1 020434Z 19005KT M01/M13 A3033 RMK A01 T10051131  RH  038%=      5-min Rain = 0
KAM1 020435Z 15007KT M01/M13 A3034 RMK A01 T10071133  RH  038%=      5-min Rain = 0
KAM1 020436Z 16007KT M02/M14 A3034 RMK A01 T10151139  RH  039%=      5-min Rain = 0
KAM1 020437Z 16006KT M02/M14 A3034 RMK A01 T10231140  RH  040%=      5-min Rain = 0
KAM1 020438Z 17007KT M03/M14 A3034 RMK A01 T10261137  RH  042%=      5-min Rain = 0
KAM1 020439Z 18007KT M03/M13 A3033 RMK A01 T10251134  RH  043%=      5-min Rain = 0
KAM1 020440Z 17006KT M02/M13 A3033 RMK A01 T10211130  RH  043%=      5-min Rain = 0
KAM1 020441Z 16006KT M02/M13 A3034 RMK A01 T10221132  RH  043%=      5-min Rain = 0
KAM1 020442Z 16006KT M02/M13 A3034 RMK A01 T10221129  RH  043%=      5-min Rain = 0
KAM1 020443Z 17005KT M02/M12 A3033 RMK A01 T10151124  RH  043%=      5-min Rain = 0
KAM1 020444Z 16004KT M01/M12 A3033 RMK A01 T10071121  RH  042%=      5-min Rain = 0
KAM1 020445Z 17003KT M00/M12 A3033 RMK A01 T10021122  RH  040%=      5-min Rain = 0
KAM1 020446Z 17003KT 00/12 A3033 RMK A01 T00-00-124  RH  039%=      5-min Rain = 0
KAM1 020447Z 17004KT 00/13 A3033 RMK A01 T00000-125  RH  038%=      5-min Rain = 0
KAM1 020448Z 17004KT M00/M13 A3033 RMK A01 T10021129  RH  038%=      5-min Rain = 0
KAM1 020449Z 17005KT M01/M13 A3033 RMK A01 T10061133  RH  038%=      5-min Rain = 0
KAM1 020450Z 17005KT M01/M13 A3033 RMK A01 T10081131  RH  039%=      5-min Rain = 0
KAM1 020451Z 18006KT M01/M13 A3033 RMK A01 T10081129  RH  040%=      5-min Rain = 0
KAM1 020452Z 18006KT M01/M13 A3033 RMK A01 T10071128  RH  039%=      5-min Rain = 0
KAM1 020453Z 18007KT M01/M13 A3033 RMK A01 T10061129  RH  039%=      5-min Rain = 0
KAM1 020454Z 18007KT M01/M13 A3033 RMK A01 T10061130  RH  038%=      5-min Rain = 0
KAM1 020455Z 17008KT M01/M13 A3033 RMK A01 T10061131  RH  038%=      5-min Rain = 0
KAM1 020456Z 17008KT M01/M13 A3033 RMK A01 T10071132  RH  038%=      5-min Rain = 0
KAM1 020457Z 17007KT M01/M13 A3033 RMK A01 T10091134  RH  038%=      5-min Rain = 0
KAM1 020458Z 16006KT M01/M14 A3033 RMK A01 T10131137  RH  039%=      5-min Rain = 0
KAM1 020459Z 16006KT M02/M14 A3033 RMK A01 T10191140  RH  039%=      5-min Rain = 0
KAM1 020500Z 16006KT M02/M14 A3033 RMK A01 T10221139  RH  040%=      5-min Rain = 0
KAM1 020501Z 16006KT M02/M14 A3033 RMK A01 T10221138  RH  041%=      5-min Rain = 0
KAM1 020502Z 16005KT M02/M14 A3033 RMK A01 T10221137  RH  041%=      5-min Rain = 0
KAM1 020503Z 17005KT M02/M14 A3033 RMK A01 T10211135  RH  041%=      5-min Rain = 0
KAM1 020504Z 17005KT M02/M13 A3033 RMK A01 T10211134  RH  042%=      5-min Rain = 0
KAM1 020505Z 17006KT M02/M13 A3033 RMK A01 T10201133  RH  042%=      5-min Rain = 0
KAM1 020506Z 17006KT M02/M13 A3033 RMK A01 T10211132  RH  042%=      5-min Rain = 0
KAM1 020507Z 17006KT M02/M13 A3033 RMK A01 T10211131  RH  043%=      5-min Rain = 0
KAM1 020508Z 17006KT M02/M13 A3033 RMK A01 T10211131  RH  043%=      5-min Rain = 0
KAM1 020509Z 17006KT M02/M13 A3033 RMK A01 T10211130  RH  043%=      5-min Rain = 0
KAM1 020510Z 17006KT M02/M13 A3033 RMK A01 T10201129  RH  043%=      5-min Rain = 0
KAM1 020511Z 17006KT M02/M13 A3033 RMK A01 T10191129  RH  043%=      5-min Rain = 0
KAM1 020512Z 17006KT M02/M13 A3033 RMK A01 T10191129  RH  043%=      5-min Rain = 0
KAM1 020513Z 17006KT M02/M13 A3033 RMK A01 T10211130  RH  043%=      5-min Rain = 0
KAM1 020514Z 18006KT M02/M13 A3033 RMK A01 T10221130  RH  043%=      5-min Rain = 0
KAM1 020515Z 18006KT M02/M13 A3033 RMK A01 T10231130  RH  043%=      5-min Rain = 0
KAM1 020516Z 19006KT M02/M13 A3033 RMK A01 T10231130  RH  043%=      5-min Rain = 0
KAM1 020517Z 19007KT M02/M13 A3033 RMK A01 T10221131  RH  043%=      5-min Rain = 0
KAM1 020518Z 19007KT M02/M13 A3033 RMK A01 T10221132  RH  043%=      5-min Rain = 0
KAM1 020519Z 19007KT M02/M13 A3033 RMK A01 T10231133  RH  042%=      5-min Rain = 0
KAM1 020520Z 19007KT M02/M13 A3033 RMK A01 T10231134  RH  042%=      5-min Rain = 0
KAM1 020521Z 20007KT M02/M14 A3032 RMK A01 T10231135  RH  042%=      5-min Rain = 0
KAM1 020522Z 20007KT M02/M14 A3032 RMK A01 T10241136  RH  042%=      5-min Rain = 0
KAM1 020523Z 20008KT M03/M14 A3032 RMK A01 T10251137  RH  042%=      5-min Rain = 0
KAM1 020524Z 20008KT M03/M14 A3032 RMK A01 T10261137  RH  042%=      5-min Rain = 0
KAM1 020525Z 20008KT M03/M14 A3032 RMK A01 T10271136  RH  043%=      5-min Rain = 0
KAM1 020526Z 20008KT M03/M13 A3032 RMK A01 T10271133  RH  044%=      5-min Rain = 0
KAM1 020527Z 20008KT M03/M13 A3032 RMK A01 T10271131  RH  045%=      5-min Rain = 0
KAM1 020528Z 20008KT M03/M13 A3032 RMK A01 T10251127  RH  045%=      5-min Rain = 0
KAM1 020529Z 20008KT M02/M13 A3032 RMK A01 T10221125  RH  045%=      5-min Rain = 0
KAM1 020530Z 20008KT M02/M12 A3032 RMK A01 T10201124  RH  045%=      5-min Rain = 0
KAM1 020531Z 20008KT M02/M13 A3032 RMK A01 T10181125  RH  044%=      5-min Rain = 0
KAM1 020532Z 20008KT M02/M13 A3032 RMK A01 T10171126  RH  043%=      5-min Rain = 0
KAM1 020533Z 20008KT M02/M13 A3032 RMK A01 T10161126  RH  043%=      5-min Rain = 0
KAM1 020534Z 20008KT M02/M13 A3032 RMK A01 T10161128  RH  042%=      5-min Rain = 0
KAM1 020535Z 20007KT M02/M13 A3032 RMK A01 T10161129  RH  042%=      5-min Rain = 0
KAM1 020536Z 20008KT M02/M13 A3032 RMK A01 T10161130  RH  041%=      5-min Rain = 0
KAM1 020537Z 20008KT M02/M13 A3032 RMK A01 T10151130  RH  041%=      5-min Rain = 0
KAM1 020538Z 20008KT M01/M13 A3032 RMK A01 T10141131  RH  040%=      5-min Rain = 0
KAM1 020539Z 20008KT M01/M13 A3032 RMK A01 T10141132  RH  040%=      5-min Rain = 0
KAM1 020540Z 20008KT M01/M13 A3032 RMK A01 T10141133  RH  040%=      5-min Rain = 0
KAM1 020541Z 20008KT M01/M13 A3032 RMK A01 T10141134  RH  040%=      5-min Rain = 0
KAM1 020542Z 20008KT M01/M13 A3032 RMK A01 T10141134  RH  040%=      5-min Rain = 0
KAM1 020543Z 20007KT M01/M14 A3032 RMK A01 T10141135  RH  039%=      5-min Rain = 0
KAM1 020544Z 21008KT M01/M14 A3032 RMK A01 T10141135  RH  039%=      5-min Rain = 0
KAM1 020545Z 21008KT M01/M14 A3032 RMK A01 T10141136  RH  039%=      5-min Rain = 0
KAM1 020546Z 21008KT M01/M14 A3032 RMK A01 T10141137  RH  039%=      5-min Rain = 0
KAM1 020547Z 21008KT M01/M14 A3032 RMK A01 T10141137  RH  039%=      5-min Rain = 0
KAM1 020548Z 20008KT M01/M14 A3032 RMK A01 T10141137  RH  039%=      5-min Rain = 0
KAM1 020549Z 20008KT M01/M14 A3032 RMK A01 T10141138  RH  038%=      5-min Rain = 0
KAM1 020550Z 21008KT M01/M14 A3032 RMK A01 T10141139  RH  038%=      5-min Rain = 0
KAM1 020551Z 21008KT M01/M14 A3032 RMK A01 T10141140  RH  038%=      5-min Rain = 0
KAM1 020552Z 21008KT M02/M14 A3032 RMK A01 T10151141  RH  037%=      5-min Rain = 0
KAM1 020553Z 21008KT M02/M14 A3032 RMK A01 T10151141  RH  038%=      5-min Rain = 0
KAM1 020554Z 21008KT M02/M14 A3032 RMK A01 T10161142  RH  038%=      5-min Rain = 0
KAM1 020555Z 21009KT M02/M14 A3032 RMK A01 T10161141  RH  038%=      5-min Rain = 0
KAM1 020556Z 21009KT M02/M14 A3032 RMK A01 T10161141  RH  038%=      5-min Rain = 0
KAM1 020557Z 21009KT M02/M14 A3032 RMK A01 T10161141  RH  038%=      5-min Rain = 0
KAM1 020558Z 21008KT M02/M14 A3032 RMK A01 T10151141  RH  038%=      5-min Rain = 0
KAM1 020559Z 21008KT M01/M14 A3031 RMK A01 T10141141  RH  037%=      5-min Rain = 0

Page generated in 0.0668 seconds.